Wetterdaten: Sonntag, 10.10.2021
Datum Zeit Temp. Aussen Temp. o. S. Temp +5cm Feuchte Auss Luftdruck Regen Sonnenschein Regendauer Solar Windben Empfang
10.10.2021 00:00 8,7 C 8,9 C 7,8 C 93 % 1028,1 hPa 0,0 l/m 0 min 0 min 0 W/m 6,4 km/h (2 Bft) 97,83 %
10.10.2021 00:02 8,8 C 8,9 C 7,8 C 93 % 1028,1 hPa 0,0 l/m 0 min 0 min 0 W/m 3,2 km/h (1 Bft) 97,37 %
10.10.2021 00:04 8,8 C 8,9 C 8,4 C 93 % 1028,1 hPa 0,0 l/m 0 min 0 min 0 W/m 3,2 km/h (1 Bft) 97,87 %
10.10.2021 00:08 8,9 C 8,9 C 8,4 C 93 % 1028,1 hPa 0,0 l/m 0 min 0 min 0 W/m 6,4 km/h (2 Bft) 97,87 %
10.10.2021 00:10 8,9 C 8,9 C 8,4 C 93 % 1028,1 hPa 0,0 l/m 0 min 0 min 0 W/m 3,2 km/h (1 Bft) 97,83 %
10.10.2021 00:12 8,9 C 8,9 C 8,4 C 93 % 1028,1 hPa 0,0 l/m 0 min 0 min 0 W/m 6,4 km/h (2 Bft) 97,87 %
10.10.2021 00:14 9,0 C 9,4 C 8,4 C 93 % 1028,1 hPa 0,0 l/m 0 min 0 min 0 W/m 6,4 km/h (2 Bft) 97,87 %
10.10.2021 00:16 9,0 C 8,9 C 8,4 C 93 % 1028,1 hPa 0,0 l/m 0 min 0 min 0 W/m 3,2 km/h (1 Bft) 97,87 %
10.10.2021 00:18 9,0 C 8,9 C 8,4 C 93 % 1028,1 hPa 0,0 l/m 0 min 0 min 0 W/m 3,2 km/h (1 Bft) 100,00 %
10.10.2021 00:20 9,0 C 8,9 C 8,4 C 93 % 1028,1 hPa 0,0 l/m 0 min 0 min 0 W/m 3,2 km/h (1 Bft) 100,00 %
10.10.2021 00:22 9,1 C 8,9 C 8,4 C 93 % 1028,1 hPa 0,0 l/m 0 min 0 min 0 W/m 3,2 km/h (1 Bft) 100,00 %
10.10.2021 00:24 9,1 C 8,9 C 8,4 C 93 % 1028,1 hPa 0,0 l/m 0 min 0 min 0 W/m 3,2 km/h (1 Bft) 100,00 %
10.10.2021 00:26 9,1 C 8,9 C 8,4 C 93 % 1028,1 hPa 0,0 l/m 0 min 0 min 0 W/m 3,2 km/h (1 Bft) 100,00 %
10.10.2021 00:28 9,1 C 8,9 C 8,4 C 93 % 1028,1 hPa 0,0 l/m 0 min 0 min 0 W/m 6,4 km/h (2 Bft) 100,00 %
10.10.2021 00:30 9,1 C 8,9 C 8,4 C 92 % 1028,1 hPa 0,0 l/m 0 min 0 min 0 W/m 6,4 km/h (2 Bft) 100,00 %
10.10.2021 00:32 9,1 C 8,9 C 8,4 C 92 % 1028,1 hPa 0,0 l/m 0 min 0 min 0 W/m 3,2 km/h (1 Bft) 100,00 %
10.10.2021 00:34 9,1 C 8,9 C 8,4 C 92 % 1028,1 hPa 0,0 l/m 0 min 0 min 0 W/m 3,2 km/h (1 Bft) 97,83 %
10.10.2021 00:36 9,1 C 8,9 C 8,4 C 92 % 1028,1 hPa 0,0 l/m 0 min 0 min 0 W/m 3,2 km/h (1 Bft) 97,87 %
10.10.2021 00:38 9,1 C 8,9 C 8,4 C 92 % 1028,1 hPa 0,0 l/m 0 min 0 min 0 W/m 6,4 km/h (2 Bft) 95,74 %
10.10.2021 00:40 9,1 C 8,9 C 8,4 C 91 % 1028,1 hPa 0,0 l/m 0 min 0 min 0 W/m 12,9 km/h (3 Bft) 97,87 %
10.10.2021 00:42 9,2 C 8,9 C 8,4 C 91 % 1028,0 hPa 0,0 l/m 0 min 0 min 0 W/m 6,4 km/h (2 Bft) 97,87 %
10.10.2021 00:44 9,2 C 8,9 C 8,4 C 91 % 1028,0 hPa 0,0 l/m 0 min 0 min 0 W/m 3,2 km/h (1 Bft) 95,74 %
10.10.2021 00:46 9,2 C 8,9 C 8,4 C 91 % 1028,0 hPa 0,0 l/m 0 min 0 min 0 W/m 6,4 km/h (2 Bft) 97,83 %
10.10.2021 00:48 9,3 C 8,9 C 8,4 C 91 % 1028,0 hPa 0,0 l/m 0 min 0 min 0 W/m 3,2 km/h (1 Bft) 97,87 %
10.10.2021 00:50 9,2 C 8,9 C 8,4 C 90 % 1028,1 hPa 0,0 l/m 0 min 0 min 0 W/m 3,2 km/h (1 Bft) 97,87 %
10.10.2021 00:52 9,3 C 8,9 C 8,4 C 90 % 1028,1 hPa 0,0 l/m 0 min 0 min 0 W/m 3,2 km/h (1 Bft) 97,87 %
10.10.2021 00:54 9,2 C 8,9 C 8,4 C 90 % 1028,1 hPa 0,0 l/m 0 min 0 min 0 W/m 6,4 km/h (2 Bft) 93,62 %
10.10.2021 00:56 9,3 C 8,9 C 8,4 C 90 % 1028,1 hPa 0,0 l/m 0 min 0 min 0 W/m 3,2 km/h (1 Bft) 95,74 %
10.10.2021 00:58 9,3 C 8,9 C 8,4 C 90 % 1028,1 hPa 0,0 l/m 0 min 0 min 0 W/m 3,2 km/h (1 Bft) 93,48 %
10.10.2021 01:00 9,3 C 8,9 C 8,4 C 89 % 1028,1 hPa 0,0 l/m 0 min 0 min 0 W/m 3,2 km/h (1 Bft) 95,74 %
10.10.2021 01:02 9,2 C 8,9 C 8,4 C 89 % 1028,1 hPa 0,0 l/m 0 min 0 min 0 W/m 6,4 km/h (2 Bft) 95,74 %
10.10.2021 01:04 9,2 C 8,9 C 8,4 C 89 % 1028,1 hPa 0,0 l/m 0 min 0 min 0 W/m 6,4 km/h (2 Bft) 93,62 %
10.10.2021 01:06 9,3 C 8,9 C 8,4 C 89 % 1028,1 hPa 0,0 l/m 0 min 0 min 0 W/m 6,4 km/h (2 Bft) 95,74 %
10.10.2021 01:08 9,3 C 8,9 C 8,4 C 88 % 1028,1 hPa 0,0 l/m 0 min 0 min 0 W/m 3,2 km/h (1 Bft) 95,74 %
10.10.2021 01:10 9,3 C 8,9 C 8,4 C 88 % 1028,2 hPa 0,0 l/m 0 min 0 min 0 W/m 6,4 km/h (2 Bft) 95,65 %
10.10.2021 01:12 9,3 C 8,9 C 8,4 C 88 % 1028,2 hPa 0,0 l/m 0 min 0 min 0 W/m 6,4 km/h (2 Bft) 93,62 %
10.10.2021 01:14 9,3 C 8,9 C 8,4 C 88 % 1028,2 hPa 0,0 l/m 0 min 0 min 0 W/m 12,9 km/h (3 Bft) 95,74 %
10.10.2021 01:16 9,3 C 8,9 C 8,4 C 87 % 1028,2 hPa 0,0 l/m 0 min 0 min 0 W/m 12,9 km/h (3 Bft) 95,74 %
10.10.2021 01:18 9,4 C 8,9 C 8,4 C 87 % 1028,2 hPa 0,0 l/m 0 min 0 min 0 W/m 3,2 km/h (1 Bft) 95,74 %
10.10.2021 01:20 9,4 C 8,9 C 8,4 C 86 % 1028,2 hPa 0,0 l/m 0 min 0 min 0 W/m 6,4 km/h (2 Bft) 95,74 %
10.10.2021 01:22 9,4 C 8,9 C 8,4 C 86 % 1028,2 hPa 0,0 l/m 0 min 0 min 0 W/m 12,9 km/h (3 Bft) 95,65 %
10.10.2021 01:24 9,4 C 8,9 C 8,4 C 86 % 1028,1 hPa 0,0 l/m 0 min 0 min 0 W/m 3,2 km/h (1 Bft) 97,87 %
10.10.2021 01:26 9,4 C 8,9 C 8,4 C 86 % 1028,1 hPa 0,0 l/m 0 min 0 min 0 W/m 3,2 km/h (1 Bft) 97,87 %
10.10.2021 01:28 9,4 C 8,9 C 8,4 C 85 % 1028,2 hPa 0,0 l/m 0 min 0 min 0 W/m 6,4 km/h (2 Bft) 97,87 %
10.10.2021 01:30 9,4 C 8,9 C 8,4 C 85 % 1028,1 hPa 0,0 l/m 0 min 0 min 0 W/m 3,2 km/h (1 Bft) 95,74 %
10.10.2021 01:32 9,4 C 8,9 C 8,4 C 85 % 1028,1 hPa 0,0 l/m 0 min 0 min 0 W/m 3,2 km/h (1 Bft) 97,87 %
10.10.2021 01:34 9,4 C 8,9 C 8,4 C 85 % 1028,1 hPa 0,0 l/m 0 min 0 min 0 W/m 6,4 km/h (2 Bft) 97,83 %
10.10.2021 01:36 9,4 C 8,9 C 8,4 C 84 % 1028,1 hPa 0,0 l/m 0 min 0 min 0 W/m 3,2 km/h (1 Bft) 97,87 %
10.10.2021 01:38 9,4 C 8,9 C 8,4 C 84 % 1028,0 hPa 0,0 l/m 0 min 0 min 0 W/m 6,4 km/h (2 Bft) 100,00 %
10.10.2021 01:40 9,4 C 8,9 C 8,4 C 84 % 1028,1 hPa 0,0 l/m 0 min 0 min 0 W/m 3,2 km/h (1 Bft) 100,00 %
10.10.2021 01:42 9,4 C 8,9 C 8,4 C 84 % 1028,1 hPa 0,0 l/m 0 min 0 min 0 W/m 3,2 km/h (1 Bft) 97,87 %
10.10.2021 01:44 9,4 C 8,9 C 8,4 C 84 % 1028,1 hPa 0,0 l/m 0 min 0 min 0 W/m 3,2 km/h (1 Bft) 100,00 %
10.10.2021 01:46 9,4 C 8,9 C 7,8 C 83 % 1028,1 hPa 0,0 l/m 0 min 0 min 0 W/m 3,2 km/h (1 Bft) 97,83 %
10.10.2021 01:48 9,4 C 8,9 C 7,8 C 83 % 1028,1 hPa 0,0 l/m 0 min 0 min 0 W/m 3,2 km/h (1 Bft) 100,00 %
10.10.2021 01:50 9,4 C 8,9 C 7,8 C 83 % 1028,1 hPa 0,0 l/m 0 min 0 min 0 W/m 3,2 km/h (1 Bft) 95,74 %
10.10.2021 01:52 9,4 C 8,9 C 7,8 C 83 % 1028,1 hPa 0,0 l/m 0 min 0 min 0 W/m 3,2 km/h (1 Bft) 97,87 %
10.10.2021 01:54 9,4 C 8,3 C 7,8 C 83 % 1028,1 hPa 0,0 l/m 0 min 0 min 0 W/m 6,4 km/h (2 Bft) 93,62 %
10.10.2021 01:56 9,4 C 8,3 C 7,8 C 83 % 1028,1 hPa 0,0 l/m 0 min 0 min 0 W/m 6,4 km/h (2 Bft) 95,65 %
10.10.2021 01:58 9,3 C 8,3 C 7,8 C 83 % 1028,1 hPa 0,0 l/m 0 min 0 min 0 W/m 3,2 km/h (1 Bft) 78,72 %
10.10.2021 02:00 9,3 C 8,3 C 7,8 C 83 % 1028,1 hPa 0,0 l/m 0 min 0 min 0 W/m 6,4 km/h (2 Bft) 66,67 %
10.10.2021 02:02 9,3 C 8,3 C 7,8 C 83 % 1028,1 hPa 0,0 l/m 0 min 0 min 0 W/m 6,4 km/h (2 Bft) 97,87 %
10.10.2021 02:04 9,3 C 8,3 C 7,8 C 83 % 1028,1 hPa 0,0 l/m 0 min 0 min 0 W/m 6,4 km/h (2 Bft) 97,87 %
10.10.2021 02:06 9,3 C 8,3 C 7,8 C 83 % 1028,0 hPa 0,0 l/m 0 min 0 min 0 W/m 6,4 km/h (2 Bft) 97,87 %
10.10.2021 02:08 9,3 C 8,3 C 7,8 C 83 % 1028,1 hPa 0,0 l/m 0 min 0 min 0 W/m 3,2 km/h (1 Bft) 95,65 %
10.10.2021 02:10 9,3 C 8,3 C 7,8 C 83 % 1028,0 hPa 0,0 l/m 0 min 0 min 0 W/m 3,2 km/h (1 Bft) 97,87 %
10.10.2021 02:12 9,3 C 8,3 C 7,8 C 83 % 1028,0 hPa 0,0 l/m 0 min 0 min 0 W/m 3,2 km/h (1 Bft) 97,87 %
10.10.2021 02:14 9,3 C 8,3 C 7,8 C 83 % 1028,1 hPa 0,0 l/m 0 min 0 min 0 W/m 6,4 km/h (2 Bft) 95,74 %
10.10.2021 02:16 9,2 C 8,3 C 7,8 C 83 % 1028,1 hPa 0,0 l/m 0 min 0 min 0 W/m 3,2 km/h (1 Bft) 97,87 %
10.10.2021 02:18 9,2 C 8,3 C 7,8 C 83 % 1028,1 hPa 0,0 l/m 0 min 0 min 0 W/m 3,2 km/h (1 Bft) 97,87 %
10.10.2021 02:20 9,2 C 8,3 C 7,8 C 83 % 1028,1 hPa 0,0 l/m 0 min 0 min 0 W/m 3,2 km/h (1 Bft) 95,65 %
10.10.2021 02:22 9,1 C 8,3 C 7,8 C 83 % 1028,1 hPa 0,0 l/m 0 min 0 min 0 W/m 3,2 km/h (1 Bft) 97,87 %
10.10.2021 02:24 9,1 C 8,3 C 7,3 C 83 % 1028,1 hPa 0,0 l/m 0 min 0 min 0 W/m 3,2 km/h (1 Bft) 97,87 %
10.10.2021 02:26 9,1 C 8,3 C 7,3 C 83 % 1028,1 hPa 0,0 l/m 0 min 0 min 0 W/m 3,2 km/h (1 Bft) 97,87 %
10.10.2021 02:28 9,1 C 8,3 C 7,3 C 83 % 1028,1 hPa 0,0 l/m 0 min 0 min 0 W/m 6,4 km/h (2 Bft) 100,00 %
10.10.2021 02:30 9,1 C 8,3 C 7,3 C 83 % 1028,1 hPa 0,0 l/m 0 min 0 min 0 W/m 3,2 km/h (1 Bft) 100,00 %
10.10.2021 02:32 9,1 C 8,3 C 7,3 C 83 % 1028,1 hPa 0,0 l/m 0 min 0 min 0 W/m 3,2 km/h (1 Bft) 100,00 %
10.10.2021 02:34 9,0 C 8,3 C 7,3 C 83 % 1028,2 hPa 0,0 l/m 0 min 0 min 0 W/m 6,4 km/h (2 Bft) 97,87 %
10.10.2021 02:36 9,0 C 8,3 C 7,3 C 83 % 1028,2 hPa 0,0 l/m 0 min 0 min 0 W/m 3,2 km/h (1 Bft) 97,87 %
10.10.2021 02:38 9,0 C 8,3 C 7,3 C 83 % 1028,2 hPa 0,0 l/m 0 min 0 min 0 W/m 3,2 km/h (1 Bft) 97,87 %
10.10.2021 02:40 9,0 C 8,3 C 7,3 C 83 % 1028,2 hPa 0,0 l/m 0 min 0 min 0 W/m 3,2 km/h (1 Bft) 97,87 %
10.10.2021 02:42 9,0 C 8,3 C 7,3 C 83 % 1028,1 hPa 0,0 l/m 0 min 0 min 0 W/m 3,2 km/h (1 Bft) 97,87 %
10.10.2021 02:44 9,0 C 8,3 C 7,3 C 83 % 1028,2 hPa 0,0 l/m 0 min 0 min 0 W/m 3,2 km/h (1 Bft) 97,83 %
10.10.2021 02:46 8,9 C 8,3 C 7,3 C 83 % 1028,2 hPa 0,0 l/m 0 min 0 min 0 W/m 6,4 km/h (2 Bft) 97,87 %
10.10.2021 02:48 8,9 C 8,3 C 7,3 C 83 % 1028,2 hPa 0,0 l/m 0 min 0 min 0 W/m 6,4 km/h (2 Bft) 97,87 %
10.10.2021 02:50 8,9 C 7,8 C 7,3 C 83 % 1028,2 hPa 0,0 l/m 0 min 0 min 0 W/m 3,2 km/h (1 Bft) 97,87 %
10.10.2021 02:52 8,9 C 7,8 C 7,3 C 83 % 1028,2 hPa 0,0 l/m 0 min 0 min 0 W/m 3,2 km/h (1 Bft) 97,87 %
10.10.2021 02:54 8,9 C 7,8 C 7,3 C 83 % 1028,2 hPa 0,0 l/m 0 min 0 min 0 W/m 3,2 km/h (1 Bft) 97,87 %
10.10.2021 02:56 8,8 C 7,8 C 7,3 C 83 % 1028,2 hPa 0,0 l/m 0 min 0 min 0 W/m 3,2 km/h (1 Bft) 97,83 %
10.10.2021 02:58 8,8 C 7,8 C 7,3 C 83 % 1028,1 hPa 0,0 l/m 0 min 0 min 0 W/m 3,2 km/h (1 Bft) 97,87 %
10.10.2021 03:00 8,8 C 7,8 C 7,3 C 83 % 1028,1 hPa 0,0 l/m 0 min 0 min 0 W/m 3,2 km/h (1 Bft) 97,87 %
10.10.2021 03:02 8,8 C 7,8 C 7,3 C 83 % 1028,1 hPa 0,0 l/m 0 min 0 min 0 W/m 3,2 km/h (1 Bft) 97,87 %
10.10.2021 03:04 8,8 C 7,8 C 7,3 C 83 % 1028,1 hPa 0,0 l/m 0 min 0 min 0 W/m 3,2 km/h (1 Bft) 97,87 %
10.10.2021 03:06 8,8 C 7,8 C 7,3 C 83 % 1028,1 hPa 0,0 l/m 0 min 0 min 0 W/m 3,2 km/h (1 Bft) 97,83 %
10.10.2021 03:08 8,8 C 7,8 C 7,3 C 83 % 1028,1 hPa 0,0 l/m 0 min 0 min 0 W/m 3,2 km/h (1 Bft) 100,00 %
10.10.2021 03:10 8,7 C 7,8 C 7,3 C 83 % 1028,1 hPa 0,0 l/m 0 min 0 min 0 W/m 3,2 km/h (1 Bft) 100,00 %
10.10.2021 03:12 8,6 C 7,8 C 7,3 C 83 % 1028,1 hPa 0,0 l/m 0 min 0 min 0 W/m 3,2 km/h (1 Bft) 100,00 %
10.10.2021 03:14 8,6 C 7,8 C 7,3 C 84 % 1028,0 hPa 0,0 l/m 0 min 0 min 0 W/m 3,2 km/h (1 Bft) 97,87 %
10.10.2021 03:16 8,6 C 7,8 C 7,3 C 84 % 1028,0 hPa 0,0 l/m 0 min 0 min 0 W/m 6,4 km/h (2 Bft) 95,74 %
10.10.2021 03:18 8,6 C 7,8 C 6,7 C 84 % 1028,0 hPa 0,0 l/m 0 min 0 min 0 W/m 3,2 km/h (1 Bft) 100,00 %
10.10.2021 03:20 8,5 C 7,8 C 6,7 C 84 % 1028,0 hPa 0,0 l/m 0 min 0 min 0 W/m 3,2 km/h (1 Bft) 97,83 %
10.10.2021 03:22 8,5 C 7,2 C 6,7 C 84 % 1028,0 hPa 0,0 l/m 0 min 0 min 0 W/m 6,4 km/h (2 Bft) 97,87 %
10.10.2021 03:24 8,5 C 7,2 C 6,7 C 84 % 1028,0 hPa 0,0 l/m 0 min 0 min 0 W/m 3,2 km/h (1 Bft) 100,00 %
10.10.2021 03:26 8,5 C 7,2 C 6,7 C 84 % 1028,0 hPa 0,0 l/m 0 min 0 min 0 W/m 3,2 km/h (1 Bft) 100,00 %
10.10.2021 03:28 8,5 C 7,2 C 6,7 C 84 % 1028,0 hPa 0,0 l/m 0 min 0 min 0 W/m 3,2 km/h (1 Bft) 100,00 %
10.10.2021 03:30 8,4 C 7,2 C 6,7 C 84 % 1028,0 hPa 0,0 l/m 0 min 0 min 0 W/m 3,2 km/h (1 Bft) 100,00 %
10.10.2021 03:32 8,4 C 7,2 C 6,7 C 84 % 1028,0 hPa 0,0 l/m 0 min 0 min 0 W/m 3,2 km/h (1 Bft) 100,00 %
10.10.2021 03:34 8,4 C 7,2 C 6,7 C 84 % 1028,0 hPa 0,0 l/m 0 min 0 min 0 W/m 3,2 km/h (1 Bft) 97,87 %
10.10.2021 03:36 8,4 C 7,2 C 6,7 C 84 % 1027,9 hPa 0,0 l/m 0 min 0 min 0 W/m 3,2 km/h (1 Bft) 100,00 %
10.10.2021 03:38 8,3 C 7,2 C 6,7 C 84 % 1027,9 hPa 0,0 l/m 0 min 0 min 0 W/m 3,2 km/h (1 Bft) 100,00 %
10.10.2021 03:40 8,3 C 7,2 C 6,7 C 84 % 1027,9 hPa 0,0 l/m 0 min 0 min 0 W/m 3,2 km/h (1 Bft) 97,87 %
10.10.2021 03:42 8,3 C 7,2 C 6,7 C 85 % 1027,9 hPa 0,0 l/m 0 min 0 min 0 W/m 6,4 km/h (2 Bft) 100,00 %
10.10.2021 03:44 8,2 C 7,2 C 6,7 C 85 % 1027,9 hPa 0,0 l/m 0 min 0 min 0 W/m 3,2 km/h (1 Bft) 100,00 %
10.10.2021 03:46 8,2 C 7,2 C 6,7 C 85 % 1027,9 hPa 0,0 l/m 0 min 0 min 0 W/m 6,4 km/h (2 Bft) 100,00 %
10.10.2021 03:48 8,1 C 7,2 C 6,7 C 85 % 1027,9 hPa 0,0 l/m 0 min 0 min 0 W/m 3,2 km/h (1 Bft) 100,00 %
10.10.2021 03:50 8,1 C 7,2 C 6,7 C 85 % 1027,8 hPa 0,0 l/m 0 min 0 min 0 W/m 3,2 km/h (1 Bft) 97,87 %
10.10.2021 03:52 8,1 C 7,2 C 6,7 C 85 % 1027,8 hPa 0,0 l/m 0 min 0 min 0 W/m 3,2 km/h (1 Bft) 95,74 %
10.10.2021 03:54 8,1 C 7,2 C 6,7 C 85 % 1027,8 hPa 0,0 l/m 0 min 0 min 0 W/m 3,2 km/h (1 Bft) 100,00 %
10.10.2021 03:56 8,1 C 7,2 C 6,7 C 85 % 1027,8 hPa 0,0 l/m 0 min 0 min 0 W/m 3,2 km/h (1 Bft) 97,87 %
10.10.2021 03:58 8,0 C 7,2 C 6,7 C 85 % 1027,8 hPa 0,0 l/m 0 min 0 min 0 W/m 3,2 km/h (1 Bft) 97,87 %
10.10.2021 04:00 8,0 C 7,2 C 6,7 C 85 % 1027,8 hPa 0,0 l/m 0 min 0 min 0 W/m 3,2 km/h (1 Bft) 97,87 %
10.10.2021 04:02 8,0 C 7,2 C 6,7 C 85 % 1027,7 hPa 0,0 l/m 0 min 0 min 0 W/m 6,4 km/h (2 Bft) 100,00 %
10.10.2021 04:04 8,0 C 7,2 C 6,7 C 85 % 1027,8 hPa 0,0 l/m 0 min 0 min 0 W/m 6,4 km/h (2 Bft) 95,74 %
10.10.2021 04:06 8,0 C 7,2 C 6,7 C 85 % 1027,7 hPa 0,0 l/m 0 min 0 min 0 W/m 6,4 km/h (2 Bft) 97,83 %
10.10.2021 04:08 7,9 C 7,2 C 6,7 C 85 % 1027,8 hPa 0,0 l/m 0 min 0 min 0 W/m 3,2 km/h (1 Bft) 97,87 %
10.10.2021 04:10 7,9 C 7,2 C 6,7 C 85 % 1027,7 hPa 0,0 l/m 0 min 0 min 0 W/m 3,2 km/h (1 Bft) 97,87 %
10.10.2021 04:12 7,9 C 7,2 C 6,7 C 85 % 1027,7 hPa 0,0 l/m 0 min 0 min 0 W/m 6,4 km/h (2 Bft) 97,87 %
10.10.2021 04:14 7,9 C 7,2 C 6,7 C 85 % 1027,7 hPa 0,0 l/m 0 min 0 min 0 W/m 3,2 km/h (1 Bft) 95,74 %
10.10.2021 04:16 7,9 C 6,7 C 6,1 C 86 % 1027,7 hPa 0,0 l/m 0 min 0 min 0 W/m 3,2 km/h (1 Bft) 95,74 %
10.10.2021 04:18 7,8 C 6,7 C 6,1 C 86 % 1027,7 hPa 0,0 l/m 0 min 0 min 0 W/m 6,4 km/h (2 Bft) 93,48 %
10.10.2021 04:20 7,8 C 6,7 C 6,1 C 86 % 1027,6 hPa 0,0 l/m 0 min 0 min 0 W/m 6,4 km/h (2 Bft) 91,49 %
10.10.2021 04:22 7,8 C 6,7 C 6,1 C 86 % 1027,6 hPa 0,0 l/m 0 min 0 min 0 W/m 3,2 km/h (1 Bft) 91,49 %
10.10.2021 04:24 7,7 C 6,7 C 6,1 C 86 % 1027,6 hPa 0,0 l/m 0 min 0 min 0 W/m 6,4 km/h (2 Bft) 95,74 %
10.10.2021 04:26 7,7 C 6,7 C 6,1 C 86 % 1027,6 hPa 0,0 l/m 0 min 0 min 0 W/m 6,4 km/h (2 Bft) 91,49 %
10.10.2021 04:28 7,7 C 6,7 C 6,1 C 86 % 1027,6 hPa 0,0 l/m 0 min 0 min 0 W/m 3,2 km/h (1 Bft) 91,49 %
10.10.2021 04:30 7,6 C 6,7 C 6,1 C 86 % 1027,6 hPa 0,0 l/m 0 min 0 min 0 W/m 6,4 km/h (2 Bft) 93,48 %
10.10.2021 04:32 7,6 C 6,7 C 6,1 C 86 % 1027,6 hPa 0,0 l/m 0 min 0 min 0 W/m 6,4 km/h (2 Bft) 91,49 %
10.10.2021 04:34 7,6 C 6,7 C 6,1 C 86 % 1027,6 hPa 0,0 l/m 0 min 0 min 0 W/m 3,2 km/h (1 Bft) 93,62 %
10.10.2021 04:36 7,6 C 6,7 C 6,1 C 86 % 1027,6 hPa 0,0 l/m 0 min 0 min 0 W/m 6,4 km/h (2 Bft) 93,62 %
10.10.2021 04:38 7,5 C 6,7 C 6,1 C 86 % 1027,5 hPa 0,0 l/m 0 min 0 min 0 W/m 3,2 km/h (1 Bft) 95,74 %
10.10.2021 04:40 7,5 C 6,7 C 6,1 C 86 % 1027,6 hPa 0,0 l/m 0 min 0 min 0 W/m 3,2 km/h (1 Bft) 93,62 %
10.10.2021 04:42 7,5 C 6,7 C 6,1 C 87 % 1027,5 hPa 0,0 l/m 0 min 0 min 0 W/m 6,4 km/h (2 Bft) 93,48 %
10.10.2021 04:44 7,5 C 6,7 C 6,1 C 87 % 1027,5 hPa 0,0 l/m 0 min 0 min 0 W/m 3,2 km/h (1 Bft) 97,87 %
10.10.2021 04:46 7,5 C 6,7 C 6,1 C 87 % 1027,6 hPa 0,0 l/m 0 min 0 min 0 W/m 6,4 km/h (2 Bft) 97,87 %
10.10.2021 04:48 7,4 C 6,7 C 6,1 C 87 % 1027,5 hPa 0,0 l/m 0 min 0 min 0 W/m 3,2 km/h (1 Bft) 97,87 %
10.10.2021 04:50 7,4 C 6,7 C 6,1 C 87 % 1027,5 hPa 0,0 l/m 0 min 0 min 0 W/m 6,4 km/h (2 Bft) 97,87 %
10.10.2021 04:52 7,4 C 6,7 C 6,1 C 87 % 1027,5 hPa 0,0 l/m 0 min 0 min 0 W/m 3,2 km/h (1 Bft) 95,74 %
10.10.2021 04:54 7,4 C 6,7 C 6,1 C 87 % 1027,5 hPa 0,0 l/m 0 min 0 min 0 W/m 6,4 km/h (2 Bft) 97,83 %
10.10.2021 04:56 7,4 C 6,7 C 6,1 C 87 % 1027,4 hPa 0,0 l/m 0 min 0 min 0 W/m 6,4 km/h (2 Bft) 97,87 %
10.10.2021 04:58 7,4 C 6,7 C 6,1 C 87 % 1027,4 hPa 0,0 l/m 0 min 0 min 0 W/m 6,4 km/h (2 Bft) 95,74 %
10.10.2021 05:00 7,3 C 6,7 C 6,1 C 87 % 1027,5 hPa 0,0 l/m 0 min 0 min 0 W/m 6,4 km/h (2 Bft) 97,87 %
10.10.2021 05:02 7,3 C 6,7 C 6,1 C 87 % 1027,4 hPa 0,0 l/m 0 min 0 min 0 W/m 3,2 km/h (1 Bft) 97,87 %
10.10.2021 05:04 7,3 C 6,7 C 6,1 C 87 % 1027,4 hPa 0,0 l/m 0 min 0 min 0 W/m 6,4 km/h (2 Bft) 97,83 %
10.10.2021 05:06 7,3 C 6,7 C 6,1 C 87 % 1027,4 hPa 0,0 l/m 0 min 0 min 0 W/m 6,4 km/h (2 Bft) 97,87 %
10.10.2021 05:08 7,3 C 6,7 C 6,1 C 88 % 1027,4 hPa 0,0 l/m 0 min 0 min 0 W/m 3,2 km/h (1 Bft) 95,74 %
10.10.2021 05:10 7,3 C 6,7 C 6,1 C 88 % 1027,4 hPa 0,0 l/m 0 min 0 min 0 W/m 3,2 km/h (1 Bft) 97,87 %
10.10.2021 05:12 7,2 C 6,1 C 6,1 C 88 % 1027,4 hPa 0,0 l/m 0 min 0 min 0 W/m 3,2 km/h (1 Bft) 97,87 %
10.10.2021 05:14 7,2 C 6,1 C 6,1 C 88 % 1027,4 hPa 0,0 l/m 0 min 0 min 0 W/m 6,4 km/h (2 Bft) 100,00 %
10.10.2021 05:16 7,2 C 6,1 C 6,1 C 88 % 1027,4 hPa 0,0 l/m 0 min 0 min 0 W/m 6,4 km/h (2 Bft) 100,00 %
10.10.2021 05:18 7,1 C 6,1 C 6,1 C 88 % 1027,3 hPa 0,0 l/m 0 min 0 min 0 W/m 6,4 km/h (2 Bft) 100,00 %
10.10.2021 05:20 7,1 C 6,1 C 6,1 C 88 % 1027,4 hPa 0,0 l/m 0 min 0 min 0 W/m 3,2 km/h (1 Bft) 100,00 %
10.10.2021 05:22 7,1 C 6,1 C 5,6 C 88 % 1027,4 hPa 0,0 l/m 0 min 0 min 0 W/m 3,2 km/h (1 Bft) 100,00 %
10.10.2021 05:24 7,1 C 6,1 C 6,1 C 88 % 1027,4 hPa 0,0 l/m 0 min 0 min 0 W/m 3,2 km/h (1 Bft) 100,00 %
10.10.2021 05:26 7,1 C 6,1 C 6,1 C 88 % 1027,4 hPa 0,0 l/m 0 min 0 min 0 W/m 6,4 km/h (2 Bft) 100,00 %
10.10.2021 05:28 7,1 C 6,1 C 5,6 C 88 % 1027,4 hPa 0,0 l/m 0 min 0 min 0 W/m 6,4 km/h (2 Bft) 100,00 %
10.10.2021 05:30 7,0 C 6,1 C 5,6 C 88 % 1027,4 hPa 0,0 l/m 0 min 0 min 0 W/m 12,9 km/h (3 Bft) 97,87 %
10.10.2021 05:32 7,0 C 6,1 C 5,6 C 88 % 1027,5 hPa 0,0 l/m 0 min 0 min 0 W/m 3,2 km/h (1 Bft) 100,00 %
10.10.2021 05:34 7,0 C 6,1 C 5,6 C 88 % 1027,4 hPa 0,0 l/m 0 min 0 min 0 W/m 3,2 km/h (1 Bft) 100,00 %
10.10.2021 05:36 7,0 C 6,1 C 5,6 C 88 % 1027,4 hPa 0,0 l/m 0 min 0 min 0 W/m 3,2 km/h (1 Bft) 100,00 %
10.10.2021 05:38 7,0 C 6,1 C 5,6 C 88 % 1027,4 hPa 0,0 l/m 0 min 0 min 0 W/m 12,9 km/h (3 Bft) 100,00 %
10.10.2021 05:40 7,0 C 6,1 C 5,6 C 88 % 1027,3 hPa 0,0 l/m 0 min 0 min 0 W/m 3,2 km/h (1 Bft) 100,00 %
10.10.2021 05:42 7,0 C 6,1 C 5,6 C 88 % 1027,4 hPa 0,0 l/m 0 min 0 min 0 W/m 6,4 km/h (2 Bft) 100,00 %
10.10.2021 05:44 7,0 C 6,1 C 5,6 C 89 % 1027,4 hPa 0,0 l/m 0 min 0 min 0 W/m 3,2 km/h (1 Bft) 97,87 %
10.10.2021 05:46 7,0 C 6,1 C 5,6 C 89 % 1027,3 hPa 0,0 l/m 0 min 0 min 0 W/m 6,4 km/h (2 Bft) 97,87 %
10.10.2021 05:48 6,9 C 6,1 C 5,6 C 89 % 1027,4 hPa 0,0 l/m 0 min 0 min 0 W/m 3,2 km/h (1 Bft) 100,00 %
10.10.2021 05:50 6,9 C 6,1 C 5,6 C 89 % 1027,3 hPa 0,0 l/m 0 min 0 min 0 W/m 3,2 km/h (1 Bft) 100,00 %
10.10.2021 05:52 6,9 C 6,1 C 5,6 C 89 % 1027,3 hPa 0,0 l/m 0 min 0 min 0 W/m 6,4 km/h (2 Bft) 100,00 %
10.10.2021 05:54 6,9 C 6,1 C 5,6 C 89 % 1027,2 hPa 0,0 l/m 0 min 0 min 0 W/m 6,4 km/h (2 Bft) 97,87 %
10.10.2021 05:56 6,9 C 6,1 C 5,6 C 89 % 1027,2 hPa 0,0 l/m 0 min 0 min 0 W/m 6,4 km/h (2 Bft) 97,87 %
10.10.2021 05:58 6,8 C 6,1 C 5,6 C 89 % 1027,3 hPa 0,0 l/m 0 min 0 min 0 W/m 6,4 km/h (2 Bft) 91,49 %
10.10.2021 06:00 6,8 C 6,1 C 5,6 C 89 % 1027,3 hPa 0,0 l/m 0 min 0 min 0 W/m 6,4 km/h (2 Bft) 97,87 %
10.10.2021 06:02 6,8 C 6,1 C 5,6 C 89 % 1027,3 hPa 0,0 l/m 0 min 0 min 0 W/m 3,2 km/h (1 Bft) 95,74 %
10.10.2021 06:04 6,8 C 6,1 C 5,6 C 89 % 1027,3 hPa 0,0 l/m 0 min 0 min 0 W/m 3,2 km/h (1 Bft) 97,83 %
10.10.2021 06:08 6,7 C 5,6 C 5,6 C 89 % 1027,3 hPa 0,0 l/m 0 min 0 min 0 W/m 6,4 km/h (2 Bft) 96,81 %
10.10.2021 06:10 6,7 C 5,6 C 5,6 C 89 % 1027,3 hPa 0,0 l/m 0 min 0 min 0 W/m 3,2 km/h (1 Bft) 98,18 %
10.10.2021 06:12 6,6 C 5,6 C 5,6 C 89 % 1027,3 hPa 0,0 l/m 0 min 0 min 0 W/m 3,2 km/h (1 Bft) 97,14 %
10.10.2021 06:14 6,6 C 5,6 C 5,6 C 89 % 1027,3 hPa 0,0 l/m 0 min 0 min 0 W/m 6,4 km/h (2 Bft) 93,75 %
10.10.2021 06:16 6,6 C 5,6 C 5,6 C 89 % 1027,3 hPa 0,0 l/m 0 min 0 min 0 W/m 3,2 km/h (1 Bft) 95,74 %
10.10.2021 06:18 6,6 C 5,6 C 5,6 C 89 % 1027,2 hPa 0,0 l/m 0 min 0 min 0 W/m 3,2 km/h (1 Bft) 95,74 %
10.10.2021 06:20 6,5 C 5,6 C 5,6 C 89 % 1027,2 hPa 0,0 l/m 0 min 0 min 0 W/m 3,2 km/h (1 Bft) 95,65 %
10.10.2021 06:22 6,5 C 5,6 C 5,6 C 89 % 1027,2 hPa 0,0 l/m 0 min 0 min 0 W/m 3,2 km/h (1 Bft) 95,74 %
10.10.2021 06:24 6,5 C 5,6 C 5,6 C 89 % 1027,3 hPa 0,0 l/m 0 min 0 min 0 W/m 3,2 km/h (1 Bft) 97,87 %
10.10.2021 06:26 6,5 C 5,6 C 5,6 C 89 % 1027,3 hPa 0,0 l/m 0 min 0 min 0 W/m 3,2 km/h (1 Bft) 97,87 %
10.10.2021 06:28 6,5 C 5,6 C 5,6 C 89 % 1027,2 hPa 0,0 l/m 0 min 0 min 0 W/m 3,2 km/h (1 Bft) 97,87 %
10.10.2021 06:30 6,5 C 5,6 C 5,6 C 89 % 1027,3 hPa 0,0 l/m 0 min 0 min 0 W/m 3,2 km/h (1 Bft) 97,87 %
10.10.2021 06:32 6,4 C 5,6 C 5,6 C 89 % 1027,2 hPa 0,0 l/m 0 min 0 min 0 W/m 6,4 km/h (2 Bft) 97,83 %
10.10.2021 06:34 6,4 C 5,6 C 5,6 C 89 % 1027,2 hPa 0,0 l/m 0 min 0 min 0 W/m 6,4 km/h (2 Bft) 97,87 %
10.10.2021 06:36 6,4 C 5,6 C 5,6 C 89 % 1027,2 hPa 0,0 l/m 0 min 0 min 0 W/m 12,9 km/h (3 Bft) 97,87 %
10.10.2021 06:38 6,4 C 5,6 C 5,6 C 89 % 1027,2 hPa 0,0 l/m 0 min 0 min 0 W/m 6,4 km/h (2 Bft) 100,00 %
10.10.2021 06:40 6,4 C 5,6 C 5,6 C 89 % 1027,3 hPa 0,0 l/m 0 min 0 min 0 W/m 3,2 km/h (1 Bft) 97,87 %
10.10.2021 06:42 6,4 C 5,6 C 5,6 C 89 % 1027,2 hPa 0,0 l/m 0 min 0 min 0 W/m 6,4 km/h (2 Bft) 97,87 %
10.10.2021 06:44 6,4 C 5,6 C 5,6 C 89 % 1027,3 hPa 0,0 l/m 0 min 0 min 0 W/m 6,4 km/h (2 Bft) 95,74 %
10.10.2021 06:46 6,4 C 5,6 C 5,6 C 89 % 1027,3 hPa 0,0 l/m 0 min 0 min 0 W/m 6,4 km/h (2 Bft) 97,87 %
10.10.2021 06:48 6,4 C 5,6 C 5,0 C 89 % 1027,3 hPa 0,0 l/m 0 min 0 min 0 W/m 3,2 km/h (1 Bft) 97,87 %
10.10.2021 06:50 6,4 C 5,6 C 5,0 C 89 % 1027,3 hPa 0,0 l/m 0 min 0 min 0 W/m 6,4 km/h (2 Bft) 100,00 %
10.10.2021 06:52 6,4 C 5,6 C 5,0 C 89 % 1027,3 hPa 0,0 l/m 0 min 0 min 0 W/m 3,2 km/h (1 Bft) 100,00 %
10.10.2021 06:54 6,3 C 5,6 C 5,0 C 90 % 1027,4 hPa 0,0 l/m 0 min 0 min 0 W/m 3,2 km/h (1 Bft) 100,00 %
10.10.2021 06:56 6,4 C 5,6 C 5,0 C 90 % 1027,4 hPa 0,0 l/m 0 min 0 min 0 W/m 3,2 km/h (1 Bft) 97,87 %
10.10.2021 06:58 6,3 C 5,6 C 5,0 C 90 % 1027,4 hPa 0,0 l/m 0 min 0 min 0 W/m 3,2 km/h (1 Bft) 100,00 %
10.10.2021 07:00 6,3 C 5,6 C 5,0 C 90 % 1027,3 hPa 0,0 l/m 0 min 0 min 0 W/m 3,2 km/h (1 Bft) 100,00 %
10.10.2021 07:02 6,3 C 5,6 C 5,0 C 90 % 1027,3 hPa 0,0 l/m 0 min 0 min 0 W/m 3,2 km/h (1 Bft) 100,00 %
10.10.2021 07:04 6,3 C 5,6 C 5,0 C 90 % 1027,3 hPa 0,0 l/m 0 min 0 min 0 W/m 6,4 km/h (2 Bft) 100,00 %
10.10.2021 07:06 6,3 C 5,6 C 5,0 C 90 % 1027,3 hPa 0,0 l/m 0 min 0 min 0 W/m 3,2 km/h (1 Bft) 100,00 %
10.10.2021 07:08 6,3 C 5,6 C 5,0 C 90 % 1027,4 hPa 0,0 l/m 0 min 0 min 0 W/m 3,2 km/h (1 Bft) 100,00 %
10.10.2021 07:10 6,3 C 5,6 C 5,0 C 90 % 1027,4 hPa 0,0 l/m 0 min 0 min 0 W/m 6,4 km/h (2 Bft) 100,00 %
10.10.2021 07:12 6,3 C 5,6 C 5,0 C 90 % 1027,4 hPa 0,0 l/m 0 min 0 min 0 W/m 3,2 km/h (1 Bft) 100,00 %
10.10.2021 07:14 6,2 C 5,6 C 5,0 C 90 % 1027,4 hPa 0,0 l/m 0 min 0 min 0 W/m 3,2 km/h (1 Bft) 100,00 %
10.10.2021 07:16 6,2 C 5,6 C 5,0 C 90 % 1027,4 hPa 0,0 l/m 0 min 0 min 0 W/m 3,2 km/h (1 Bft) 97,87 %
10.10.2021 07:18 6,2 C 5,6 C 5,0 C 90 % 1027,4 hPa 0,0 l/m 0 min 0 min 0 W/m 0,0 km/h (0 Bft) 100,00 %
10.10.2021 07:20 6,2 C 5,6 C 5,0 C 90 % 1027,4 hPa 0,0 l/m 0 min 0 min 0 W/m 3,2 km/h (1 Bft) 100,00 %
10.10.2021 07:22 6,2 C 5,6 C 5,0 C 90 % 1027,5 hPa 0,0 l/m 0 min 0 min 0 W/m 3,2 km/h (1 Bft) 95,74 %
10.10.2021 07:24 6,1 C 5,6 C 5,0 C 90 % 1027,5 hPa 0,0 l/m 0 min 0 min 0 W/m 3,2 km/h (1 Bft) 100,00 %
10.10.2021 07:26 6,1 C 5,6 C 5,0 C 90 % 1027,5 hPa 0,0 l/m 0 min 0 min 0 W/m 3,2 km/h (1 Bft) 100,00 %
10.10.2021 07:28 6,1 C 5,6 C 5,0 C 90 % 1027,5 hPa 0,0 l/m 0 min 0 min 0 W/m 3,2 km/h (1 Bft) 100,00 %
10.10.2021 07:30 6,1 C 5,6 C 5,0 C 90 % 1027,5 hPa 0,0 l/m 0 min 0 min 0 W/m 3,2 km/h (1 Bft) 100,00 %
10.10.2021 07:32 6,1 C 5,6 C 5,0 C 90 % 1027,5 hPa 0,0 l/m 0 min 0 min 0 W/m 3,2 km/h (1 Bft) 100,00 %
10.10.2021 07:34 6,1 C 5,6 C 5,0 C 90 % 1027,5 hPa 0,0 l/m 0 min 0 min 0 W/m 3,2 km/h (1 Bft) 100,00 %
10.10.2021 07:36 6,1 C 5,0 C 5,0 C 90 % 1027,5 hPa 0,0 l/m 0 min 0 min 0 W/m 3,2 km/h (1 Bft) 97,87 %
10.10.2021 07:38 6,1 C 5,0 C 5,0 C 90 % 1027,5 hPa 0,0 l/m 0 min 0 min 0 W/m 0,0 km/h (0 Bft) 97,83 %
10.10.2021 07:40 6,0 C 5,0 C 5,0 C 90 % 1027,5 hPa 0,0 l/m 0 min 0 min 0 W/m 3,2 km/h (1 Bft) 97,87 %
10.10.2021 07:42 6,0 C 5,0 C 5,0 C 90 % 1027,5 hPa 0,0 l/m 0 min 0 min 0 W/m 3,2 km/h (1 Bft) 95,74 %
10.10.2021 07:44 6,0 C 5,0 C 5,0 C 90 % 1027,5 hPa 0,0 l/m 0 min 0 min 0 W/m 3,2 km/h (1 Bft) 95,74 %
10.10.2021 07:46 6,0 C 5,0 C 5,0 C 90 % 1027,6 hPa 0,0 l/m 0 min 0 min 5 W/m 3,2 km/h (1 Bft) 97,87 %
10.10.2021 07:48 6,0 C 5,0 C 5,0 C 90 % 1027,6 hPa 0,0 l/m 0 min 0 min 5 W/m 3,2 km/h (1 Bft) 97,87 %
10.10.2021 07:50 6,0 C 5,0 C 5,0 C 90 % 1027,6 hPa 0,0 l/m 0 min 0 min 5 W/m 3,2 km/h (1 Bft) 97,83 %
10.10.2021 07:52 6,0 C 5,0 C 5,0 C 90 % 1027,6 hPa 0,0 l/m 0 min 0 min 5 W/m 3,2 km/h (1 Bft) 95,74 %
10.10.2021 07:54 6,0 C 5,0 C 5,0 C 90 % 1027,5 hPa 0,0 l/m 0 min 0 min 6 W/m 3,2 km/h (1 Bft) 95,74 %
10.10.2021 07:56 5,9 C 5,0 C 5,0 C 90 % 1027,6 hPa 0,0 l/m 0 min 0 min 7 W/m 3,2 km/h (1 Bft) 95,74 %
10.10.2021 07:58 5,9 C 5,0 C 5,0 C 90 % 1027,6 hPa 0,0 l/m 0 min 0 min 7 W/m 3,2 km/h (1 Bft) 95,74 %
10.10.2021 08:00 5,9 C 5,6 C 5,0 C 90 % 1027,6 hPa 0,0 l/m 0 min 0 min 10 W/m 3,2 km/h (1 Bft) 95,65 %
10.10.2021 08:02 5,9 C 5,6 C 5,0 C 91 % 1027,5 hPa 0,0 l/m 0 min 0 min 11 W/m 6,4 km/h (2 Bft) 95,74 %
10.10.2021 08:04 5,9 C 5,6 C 5,0 C 91 % 1027,6 hPa 0,0 l/m 0 min 0 min 12 W/m 3,2 km/h (1 Bft) 97,87 %
10.10.2021 08:06 5,9 C 5,6 C 5,0 C 91 % 1027,6 hPa 0,0 l/m 0 min 0 min 14 W/m 6,4 km/h (2 Bft) 97,87 %
10.10.2021 08:08 5,9 C 5,6 C 5,0 C 91 % 1027,6 hPa 0,0 l/m 0 min 0 min 16 W/m 3,2 km/h (1 Bft) 95,74 %
10.10.2021 08:10 5,9 C 5,6 C 5,0 C 91 % 1027,6 hPa 0,0 l/m 0 min 0 min 16 W/m 3,2 km/h (1 Bft) 97,87 %
10.10.2021 08:12 5,9 C 5,6 C 5,0 C 91 % 1027,6 hPa 0,0 l/m 0 min 0 min 17 W/m 3,2 km/h (1 Bft) 97,83 %
10.10.2021 08:14 5,9 C 5,6 C 5,0 C 91 % 1027,6 hPa 0,0 l/m 0 min 0 min 19 W/m 6,4 km/h (2 Bft) 97,87 %
10.10.2021 08:16 5,9 C 5,6 C 5,0 C 91 % 1027,6 hPa 0,0 l/m 0 min 0 min 19 W/m 6,4 km/h (2 Bft) 95,74 %
10.10.2021 08:18 5,9 C 5,6 C 5,0 C 91 % 1027,6 hPa 0,0 l/m 0 min 0 min 21 W/m 6,4 km/h (2 Bft) 97,87 %
10.10.2021 08:20 5,9 C 5,6 C 5,0 C 91 % 1027,6 hPa 0,0 l/m 0 min 0 min 22 W/m 12,9 km/h (3 Bft) 97,87 %
10.10.2021 08:22 5,9 C 5,6 C 5,0 C 91 % 1027,5 hPa 0,0 l/m 0 min 0 min 23 W/m 3,2 km/h (1 Bft) 93,62 %
10.10.2021 08:24 5,9 C 5,6 C 5,0 C 91 % 1027,5 hPa 0,0 l/m 0 min 0 min 24 W/m 3,2 km/h (1 Bft) 89,13 %
10.10.2021 08:26 5,9 C 5,6 C 5,0 C 91 % 1027,5 hPa 0,0 l/m 0 min 0 min 25 W/m 6,4 km/h (2 Bft) 91,49 %
10.10.2021 08:28 5,9 C 5,6 C 5,0 C 91 % 1027,4 hPa 0,0 l/m 0 min 0 min 25 W/m 3,2 km/h (1 Bft) 95,65 %
10.10.2021 08:30 5,9 C 5,6 C 5,0 C 91 % 1027,4 hPa 0,0 l/m 0 min 0 min 26 W/m 3,2 km/h (1 Bft) 93,62 %
10.10.2021 08:32 5,9 C 5,6 C 5,0 C 91 % 1027,4 hPa 0,0 l/m 0 min 0 min 26 W/m 3,2 km/h (1 Bft) 95,74 %
10.10.2021 08:34 5,9 C 5,6 C 5,0 C 91 % 1027,4 hPa 0,0 l/m 0 min 0 min 26 W/m 6,4 km/h (2 Bft) 95,74 %
10.10.2021 08:36 5,9 C 5,6 C 5,0 C 91 % 1027,5 hPa 0,0 l/m 0 min 0 min 26 W/m 12,9 km/h (3 Bft) 93,48 %
10.10.2021 08:38 6,0 C 5,6 C 5,0 C 91 % 1027,5 hPa 0,0 l/m 0 min 0 min 26 W/m 12,9 km/h (3 Bft) 93,62 %
10.10.2021 08:40 6,0 C 5,6 C 5,0 C 91 % 1027,5 hPa 0,0 l/m 0 min 0 min 26 W/m 16,1 km/h (3 Bft) 95,74 %
10.10.2021 08:42 6,0 C 5,6 C 5,0 C 91 % 1027,5 hPa 0,0 l/m 0 min 0 min 27 W/m 16,1 km/h (3 Bft) 95,74 %
10.10.2021 08:44 6,0 C 5,6 C 5,0 C 91 % 1027,6 hPa 0,0 l/m 0 min 0 min 26 W/m 6,4 km/h (2 Bft) 93,62 %
10.10.2021 08:45 6,0 C 5,6 C 5,0 C 91 % 1027,6 hPa 0,0 l/m 0 min 0 min 27 W/m 12,9 km/h (3 Bft) 95,74 %
10.10.2021 08:48 6,0 C 5,6 C 5,0 C 91 % 1027,6 hPa 0,0 l/m 0 min 0 min 29 W/m 9,7 km/h (2 Bft) 95,65 %
10.10.2021 08:50 6,1 C 6,1 C 5,6 C 91 % 1027,5 hPa 0,0 l/m 0 min 0 min 31 W/m 12,9 km/h (3 Bft) 95,74 %
10.10.2021 08:52 6,1 C 6,1 C 5,6 C 91 % 1027,6 hPa 0,0 l/m 0 min 0 min 32 W/m 6,4 km/h (2 Bft) 97,87 %
10.10.2021 08:54 6,1 C 6,1 C 5,6 C 91 % 1027,6 hPa 0,0 l/m 0 min 0 min 33 W/m 12,9 km/h (3 Bft) 97,87 %
10.10.2021 08:56 6,1 C 6,1 C 5,6 C 91 % 1027,5 hPa 0,0 l/m 0 min 0 min 34 W/m 12,9 km/h (3 Bft) 95,74 %
10.10.2021 08:58 6,2 C 6,1 C 5,6 C 92 % 1027,5 hPa 0,0 l/m 0 min 0 min 35 W/m 9,7 km/h (2 Bft) 95,74 %
10.10.2021 09:00 6,3 C 6,1 C 5,6 C 92 % 1027,5 hPa 0,0 l/m 0 min 0 min 35 W/m 6,4 km/h (2 Bft) 100,00 %
10.10.2021 09:02 6,3 C 6,1 C 5,6 C 92 % 1027,5 hPa 0,0 l/m 0 min 0 min 37 W/m 12,9 km/h (3 Bft) 97,87 %
10.10.2021 09:04 6,3 C 6,1 C 5,6 C 92 % 1027,6 hPa 0,0 l/m 0 min 0 min 40 W/m 3,2 km/h (1 Bft) 97,87 %
10.10.2021 09:06 6,4 C 6,1 C 5,6 C 92 % 1027,6 hPa 0,0 l/m 0 min 0 min 43 W/m 6,4 km/h (2 Bft) 100,00 %
10.10.2021 09:08 6,4 C 6,1 C 5,6 C 92 % 1027,6 hPa 0,0 l/m 0 min 0 min 47 W/m 3,2 km/h (1 Bft) 100,00 %
10.10.2021 09:10 6,4 C 6,1 C 5,6 C 92 % 1027,6 hPa 0,0 l/m 0 min 0 min 48 W/m 3,2 km/h (1 Bft) 97,87 %
10.10.2021 09:12 6,4 C 6,7 C 6,1 C 92 % 1027,6 hPa 0,0 l/m 0 min 0 min 49 W/m 6,4 km/h (2 Bft) 100,00 %
10.10.2021 09:14 6,5 C 6,7 C 6,1 C 92 % 1027,6 hPa 0,0 l/m 0 min 0 min 46 W/m 6,4 km/h (2 Bft) 100,00 %
10.10.2021 09:16 6,5 C 6,7 C 6,1 C 92 % 1027,6 hPa 0,0 l/m 0 min 0 min 44 W/m 3,2 km/h (1 Bft) 100,00 %
10.10.2021 09:18 6,5 C 6,7 C 6,1 C 92 % 1027,7 hPa 0,0 l/m 0 min 0 min 45 W/m 6,4 km/h (2 Bft) 100,00 %
10.10.2021 09:20 6,6 C 6,7 C 6,1 C 92 % 1027,7 hPa 0,0 l/m 0 min 0 min 48 W/m 6,4 km/h (2 Bft) 97,87 %
10.10.2021 09:22 6,6 C 6,7 C 6,1 C 92 % 1027,8 hPa 0,0 l/m 0 min 0 min 54 W/m 6,4 km/h (2 Bft) 97,87 %
10.10.2021 09:24 6,7 C 6,7 C 6,1 C 92 % 1027,8 hPa 0,0 l/m 0 min 0 min 59 W/m 3,2 km/h (1 Bft) 95,65 %
10.10.2021 09:26 6,8 C 6,7 C 6,1 C 92 % 1027,7 hPa 0,0 l/m 0 min 0 min 58 W/m 3,2 km/h (1 Bft) 100,00 %
10.10.2021 09:28 6,8 C 6,7 C 6,1 C 92 % 1027,6 hPa 0,0 l/m 0 min 0 min 55 W/m 6,4 km/h (2 Bft) 97,87 %
10.10.2021 09:30 6,9 C 7,2 C 6,1 C 92 % 1027,6 hPa 0,0 l/m 0 min 0 min 53 W/m 6,4 km/h (2 Bft) 97,87 %
10.10.2021 09:32 6,9 C 7,2 C 6,1 C 92 % 1027,6 hPa 0,0 l/m 0 min 0 min 49 W/m 6,4 km/h (2 Bft) 97,87 %
10.10.2021 09:34 6,9 C 7,2 C 6,1 C 92 % 1027,6 hPa 0,0 l/m 0 min 0 min 47 W/m 3,2 km/h (1 Bft) 95,74 %
10.10.2021 09:36 6,9 C 7,2 C 6,1 C 92 % 1027,6 hPa 0,0 l/m 0 min 0 min 46 W/m 6,4 km/h (2 Bft) 97,83 %
10.10.2021 09:38 7,0 C 7,2 C 6,1 C 92 % 1027,6 hPa 0,0 l/m 0 min 0 min 46 W/m 3,2 km/h (1 Bft) 97,87 %
10.10.2021 09:40 7,0 C 7,2 C 6,1 C 92 % 1027,6 hPa 0,0 l/m 0 min 0 min 52 W/m 6,4 km/h (2 Bft) 95,74 %
10.10.2021 09:42 7,1 C 7,2 C 6,7 C 92 % 1027,6 hPa 0,0 l/m 0 min 0 min 53 W/m 3,2 km/h (1 Bft) 97,87 %
10.10.2021 09:44 7,1 C 7,2 C 6,7 C 92 % 1027,7 hPa 0,0 l/m 0 min 0 min 47 W/m 3,2 km/h (1 Bft) 97,87 %
10.10.2021 09:46 7,1 C 7,2 C 6,7 C 92 % 1027,8 hPa 0,0 l/m 0 min 0 min 46 W/m 3,2 km/h (1 Bft) 97,87 %
10.10.2021 09:48 7,2 C 7,2 C 6,7 C 92 % 1027,8 hPa 0,0 l/m 0 min 0 min 43 W/m 6,4 km/h (2 Bft) 97,83 %
10.10.2021 09:50 7,2 C 7,2 C 6,7 C 92 % 1027,8 hPa 0,0 l/m 0 min 0 min 46 W/m 6,4 km/h (2 Bft) 100,00 %
10.10.2021 09:52 7,3 C 7,2 C 6,7 C 92 % 1027,8 hPa 0,0 l/m 0 min 0 min 48 W/m 6,4 km/h (2 Bft) 100,00 %
10.10.2021 09:54 7,3 C 7,2 C 6,7 C 92 % 1027,8 hPa 0,0 l/m 0 min 0 min 66 W/m 6,4 km/h (2 Bft) 100,00 %
10.10.2021 09:56 7,3 C 7,2 C 6,7 C 92 % 1027,8 hPa 0,0 l/m 0 min 0 min 60 W/m 3,2 km/h (1 Bft) 100,00 %
10.10.2021 09:58 7,3 C 7,8 C 6,7 C 92 % 1027,9 hPa 0,0 l/m 0 min 0 min 58 W/m 6,4 km/h (2 Bft) 100,00 %
10.10.2021 10:00 7,4 C 7,8 C 6,7 C 92 % 1027,9 hPa 0,0 l/m 0 min 0 min 47 W/m 6,4 km/h (2 Bft) 100,00 %
10.10.2021 10:02 7,4 C 7,8 C 6,7 C 92 % 1027,9 hPa 0,0 l/m 0 min 0 min 53 W/m 3,2 km/h (1 Bft) 100,00 %
10.10.2021 10:04 7,5 C 7,8 C 6,7 C 92 % 1027,8 hPa 0,0 l/m 0 min 0 min 73 W/m 3,2 km/h (1 Bft) 100,00 %
10.10.2021 10:06 7,5 C 7,8 C 6,7 C 92 % 1027,8 hPa 0,0 l/m 0 min 0 min 68 W/m 3,2 km/h (1 Bft) 100,00 %
10.10.2021 10:08 7,5 C 7,8 C 6,7 C 92 % 1027,8 hPa 0,0 l/m 0 min 0 min 54 W/m 3,2 km/h (1 Bft) 95,74 %
10.10.2021 10:10 7,5 C 7,8 C 6,7 C 92 % 1027,8 hPa 0,0 l/m 0 min 0 min 52 W/m 3,2 km/h (1 Bft) 100,00 %
10.10.2021 10:12 7,6 C 7,8 C 6,7 C 92 % 1027,8 hPa 0,0 l/m 0 min 0 min 54 W/m 3,2 km/h (1 Bft) 100,00 %
10.10.2021 10:14 7,6 C 7,8 C 7,3 C 92 % 1027,7 hPa 0,0 l/m 0 min 0 min 56 W/m 3,2 km/h (1 Bft) 97,87 %
10.10.2021 10:16 7,6 C 7,8 C 7,3 C 92 % 1027,7 hPa 0,0 l/m 0 min 0 min 55 W/m 3,2 km/h (1 Bft) 100,00 %
10.10.2021 10:18 7,7 C 8,3 C 7,3 C 92 % 1027,8 hPa 0,0 l/m 0 min 0 min 59 W/m 3,2 km/h (1 Bft) 100,00 %
10.10.2021 10:20 7,8 C 8,3 C 7,3 C 92 % 1027,8 hPa 0,0 l/m 0 min 0 min 62 W/m 6,4 km/h (2 Bft) 97,87 %
10.10.2021 10:22 7,9 C 8,3 C 7,3 C 92 % 1027,8 hPa 0,0 l/m 0 min 0 min 63 W/m 6,4 km/h (2 Bft) 97,83 %
10.10.2021 10:24 7,9 C 8,3 C 7,3 C 92 % 1027,8 hPa 0,0 l/m 0 min 0 min 73 W/m 6,4 km/h (2 Bft) 100,00 %
10.10.2021 10:26 8,0 C 8,3 C 7,3 C 92 % 1027,8 hPa 0,0 l/m 0 min 0 min 101 W/m 3,2 km/h (1 Bft) 100,00 %
10.10.2021 10:28 8,0 C 8,3 C 7,3 C 92 % 1027,8 hPa 0,0 l/m 0 min 0 min 78 W/m 3,2 km/h (1 Bft) 100,00 %
10.10.2021 10:30 8,1 C 8,9 C 7,8 C 92 % 1027,8 hPa 0,0 l/m 0 min 0 min 92 W/m 3,2 km/h (1 Bft) 97,87 %
10.10.2021 10:32 8,2 C 8,9 C 7,8 C 92 % 1027,8 hPa 0,0 l/m 0 min 0 min 127 W/m 6,4 km/h (2 Bft) 100,00 %
10.10.2021 10:34 8,3 C 8,9 C 7,8 C 92 % 1027,9 hPa 0,0 l/m 0 min 0 min 142 W/m 6,4 km/h (2 Bft) 97,83 %
10.10.2021 10:36 8,4 C 8,9 C 7,8 C 92 % 1027,7 hPa 0,0 l/m 0 min 0 min 82 W/m 3,2 km/h (1 Bft) 97,87 %
10.10.2021 10:38 8,4 C 8,9 C 7,8 C 91 % 1027,6 hPa 0,0 l/m 0 min 0 min 80 W/m 3,2 km/h (1 Bft) 100,00 %
10.10.2021 10:40 8,5 C 9,4 C 8,4 C 92 % 1027,6 hPa 0,0 l/m 0 min 0 min 78 W/m 6,4 km/h (2 Bft) 100,00 %
10.10.2021 10:42 8,6 C 9,4 C 8,4 C 92 % 1027,4 hPa 0,0 l/m 0 min 0 min 83 W/m 9,7 km/h (2 Bft) 96,23 %
10.10.2021 10:44 8,7 C 9,4 C 8,4 C 91 % 1027,5 hPa 0,0 l/m 0 min 0 min 85 W/m 12,9 km/h (3 Bft) 100,00 %
10.10.2021 10:46 8,8 C 9,4 C 8,4 C 91 % 1027,5 hPa 0,0 l/m 0 min 0 min 91 W/m 3,2 km/h (1 Bft) 100,00 %
10.10.2021 10:48 8,8 C 9,4 C 8,4 C 91 % 1027,5 hPa 0,0 l/m 0 min 0 min 90 W/m 9,7 km/h (2 Bft) 100,00 %
10.10.2021 10:50 8,9 C 10,0 C 8,4 C 91 % 1027,5 hPa 0,0 l/m 0 min 0 min 92 W/m 6,4 km/h (2 Bft) 97,87 %
10.10.2021 10:52 9,0 C 10,0 C 8,9 C 91 % 1027,4 hPa 0,0 l/m 0 min 0 min 96 W/m 3,2 km/h (1 Bft) 93,62 %
10.10.2021 10:54 9,1 C 10,6 C 8,9 C 91 % 1027,3 hPa 0,0 l/m 0 min 0 min 161 W/m 9,7 km/h (2 Bft) 100,00 %
10.10.2021 10:56 9,2 C 10,6 C 8,9 C 91 % 1027,2 hPa 0,0 l/m 0 min 0 min 201 W/m 6,4 km/h (2 Bft) 95,74 %
10.10.2021 10:58 9,3 C 11,1 C 8,9 C 91 % 1027,1 hPa 0,0 l/m 0 min 0 min 131 W/m 6,4 km/h (2 Bft) 70,21 %
10.10.2021 11:00 9,4 C 11,1 C 8,9 C 90 % 1027,1 hPa 0,0 l/m 0 min 0 min 159 W/m 6,4 km/h (2 Bft) 75,56 %
10.10.2021 11:02 9,5 C 11,1 C 8,9 C 90 % 1027,2 hPa 0,0 l/m 0 min 0 min 142 W/m 12,9 km/h (3 Bft) 95,74 %
10.10.2021 11:04 9,6 C 11,7 C 9,5 C 90 % 1027,3 hPa 0,0 l/m 0 min 0 min 128 W/m 6,4 km/h (2 Bft) 95,74 %
10.10.2021 11:06 9,7 C 12,2 C 9,5 C 90 % 1027,4 hPa 0,0 l/m 0 min 0 min 136 W/m 6,4 km/h (2 Bft) 95,74 %
10.10.2021 11:08 9,8 C 13,9 C 9,5 C 89 % 1027,5 hPa 0,0 l/m 0 min 0 min 179 W/m 3,2 km/h (1 Bft) 93,62 %
10.10.2021 11:10 10,0 C 15,0 C 10,0 C 89 % 1027,6 hPa 0,0 l/m 2 min 0 min 266 W/m 6,4 km/h (2 Bft) 95,74 %
10.10.2021 11:12 10,0 C 15,6 C 10,0 C 89 % 1027,6 hPa 0,0 l/m 2 min 0 min 331 W/m 6,4 km/h (2 Bft) 93,48 %
10.10.2021 11:14 10,2 C 16,7 C 10,6 C 89 % 1027,6 hPa 0,0 l/m 2 min 0 min 354 W/m 6,4 km/h (2 Bft) 93,62 %
10.10.2021 11:16 10,3 C 16,7 C 10,6 C 88 % 1027,6 hPa 0,0 l/m 2 min 0 min 299 W/m 6,4 km/h (2 Bft) 91,49 %
10.10.2021 11:18 10,4 C 16,7 C 10,6 C 88 % 1027,7 hPa 0,0 l/m 2 min 0 min 278 W/m 6,4 km/h (2 Bft) 95,74 %
10.10.2021 11:20 10,5 C 16,7 C 10,6 C 88 % 1027,7 hPa 0,0 l/m 2 min 0 min 242 W/m 6,4 km/h (2 Bft) 95,74 %
10.10.2021 11:22 10,6 C 17,2 C 11,1 C 87 % 1027,8 hPa 0,0 l/m 2 min 0 min 240 W/m 3,2 km/h (1 Bft) 93,62 %
10.10.2021 11:24 10,8 C 17,2 C 11,1 C 87 % 1027,8 hPa 0,0 l/m 2 min 0 min 324 W/m 6,4 km/h (2 Bft) 93,48 %
10.10.2021 11:26 10,9 C 16,7 C 11,7 C 87 % 1027,8 hPa 0,0 l/m 2 min 0 min 314 W/m 6,4 km/h (2 Bft) 95,74 %
10.10.2021 11:28 11,1 C 16,7 C 11,7 C 87 % 1027,8 hPa 0,0 l/m 2 min 0 min 266 W/m 6,4 km/h (2 Bft) 93,62 %
10.10.2021 11:30 11,3 C 17,2 C 11,7 C 86 % 1027,8 hPa 0,0 l/m 2 min 0 min 324 W/m 6,4 km/h (2 Bft) 93,62 %
10.10.2021 11:32 11,4 C 17,2 C 11,7 C 86 % 1027,8 hPa 0,0 l/m 2 min 0 min 368 W/m 3,2 km/h (1 Bft) 93,62 %
10.10.2021 11:34 11,4 C 17,2 C 12,3 C 85 % 1027,8 hPa 0,0 l/m 2 min 0 min 335 W/m 3,2 km/h (1 Bft) 91,30 %
10.10.2021 11:36 11,5 C 17,2 C 12,3 C 85 % 1027,8 hPa 0,0 l/m 2 min 0 min 347 W/m 3,2 km/h (1 Bft) 93,62 %
10.10.2021 11:38 11,6 C 17,2 C 13,4 C 84 % 1027,8 hPa 0,0 l/m 2 min 0 min 344 W/m 9,7 km/h (2 Bft) 95,74 %
10.10.2021 11:40 11,8 C 17,2 C 13,4 C 84 % 1027,8 hPa 0,0 l/m 2 min 0 min 367 W/m 9,7 km/h (2 Bft) 93,62 %
10.10.2021 11:42 11,9 C 16,7 C 13,4 C 84 % 1027,8 hPa 0,0 l/m 2 min 0 min 307 W/m 6,4 km/h (2 Bft) 95,74 %
10.10.2021 11:44 11,9 C 16,1 C 13,9 C 83 % 1027,7 hPa 0,0 l/m 2 min 0 min 298 W/m 3,2 km/h (1 Bft) 95,74 %
10.10.2021 11:46 12,0 C 16,1 C 13,9 C 83 % 1027,7 hPa 0,0 l/m 2 min 0 min 321 W/m 6,4 km/h (2 Bft) 91,30 %
10.10.2021 11:48 12,0 C 16,7 C 14,5 C 83 % 1027,8 hPa 0,0 l/m 2 min 0 min 354 W/m 9,7 km/h (2 Bft) 93,62 %
10.10.2021 11:50 12,1 C 16,7 C 14,5 C 83 % 1027,7 hPa 0,0 l/m 2 min 0 min 377 W/m 6,4 km/h (2 Bft) 95,74 %
10.10.2021 11:52 12,2 C 17,2 C 14,5 C 83 % 1027,8 hPa 0,0 l/m 2 min 0 min 265 W/m 9,7 km/h (2 Bft) 95,74 %
10.10.2021 11:54 12,3 C 17,2 C 14,5 C 83 % 1027,7 hPa 0,0 l/m 0 min 0 min 210 W/m 6,4 km/h (2 Bft) 93,62 %
10.10.2021 11:56 12,4 C 17,2 C 13,9 C 82 % 1027,8 hPa 0,0 l/m 0 min 0 min 205 W/m 3,2 km/h (1 Bft) 97,87 %
10.10.2021 11:58 12,4 C 17,2 C 13,9 C 82 % 1027,8 hPa 0,0 l/m 2 min 0 min 254 W/m 6,4 km/h (2 Bft) 97,83 %
10.10.2021 12:00 12,5 C 16,7 C 13,9 C 82 % 1027,8 hPa 0,0 l/m 0 min 0 min 237 W/m 9,7 km/h (2 Bft) 97,87 %
10.10.2021 12:02 12,5 C 16,1 C 13,4 C 82 % 1027,8 hPa 0,0 l/m 2 min 0 min 311 W/m 6,4 km/h (2 Bft) 95,74 %
10.10.2021 12:04 12,6 C 15,6 C 13,4 C 82 % 1027,8 hPa 0,0 l/m 2 min 0 min 344 W/m 6,4 km/h (2 Bft) 97,87 %
10.10.2021 12:07 12,7 C 15,0 C 12,8 C 81 % 1027,8 hPa 0,0 l/m 3 min 0 min 379 W/m 6,4 km/h (2 Bft) 97,18 %
10.10.2021 12:08 12,8 C 15,0 C 12,8 C 81 % 1027,8 hPa 0,0 l/m 1 min 0 min 379 W/m 3,2 km/h (1 Bft) 100,00 %
10.10.2021 12:10 12,8 C 15,0 C 12,8 C 81 % 1027,8 hPa 0,0 l/m 2 min 0 min 292 W/m 9,7 km/h (2 Bft) 95,65 %
10.10.2021 12:12 12,9 C 15,0 C 12,8 C 81 % 1027,8 hPa 0,0 l/m 0 min 0 min 234 W/m 9,7 km/h (2 Bft) 97,87 %
10.10.2021 12:14 12,9 C 14,4 C 12,8 C 81 % 1027,8 hPa 0,0 l/m 0 min 0 min 234 W/m 3,2 km/h (1 Bft) 97,87 %
10.10.2021 12:16 12,9 C 14,4 C 12,3 C 81 % 1027,8 hPa 0,0 l/m 0 min 0 min 234 W/m 6,4 km/h (2 Bft) 95,74 %
10.10.2021 12:18 13,0 C 14,4 C 12,3 C 81 % 1027,8 hPa 0,0 l/m 0 min 0 min 236 W/m 6,4 km/h (2 Bft) 100,00 %
10.10.2021 12:20 13,0 C 14,4 C 12,3 C 81 % 1027,8 hPa 0,0 l/m 0 min 0 min 243 W/m 9,7 km/h (2 Bft) 100,00 %
10.10.2021 12:22 13,0 C 14,4 C 12,3 C 80 % 1027,8 hPa 0,0 l/m 0 min 0 min 236 W/m 6,4 km/h (2 Bft) 100,00 %
10.10.2021 12:24 13,1 C 13,9 C 12,3 C 80 % 1027,7 hPa 0,0 l/m 0 min 0 min 234 W/m 3,2 km/h (1 Bft) 100,00 %
10.10.2021 12:26 13,1 C 13,9 C 12,3 C 80 % 1027,7 hPa 0,0 l/m 0 min 0 min 237 W/m 6,4 km/h (2 Bft) 100,00 %
10.10.2021 12:28 13,1 C 13,9 C 11,7 C 80 % 1027,7 hPa 0,0 l/m 0 min 0 min 239 W/m 6,4 km/h (2 Bft) 100,00 %
10.10.2021 12:30 13,1 C 13,9 C 12,3 C 81 % 1027,7 hPa 0,0 l/m 0 min 0 min 235 W/m 9,7 km/h (2 Bft) 97,87 %
10.10.2021 12:32 13,1 C 13,9 C 12,3 C 81 % 1027,7 hPa 0,0 l/m 0 min 0 min 225 W/m 9,7 km/h (2 Bft) 100,00 %
10.10.2021 12:34 13,2 C 13,9 C 11,7 C 81 % 1027,6 hPa 0,0 l/m 0 min 0 min 218 W/m 9,7 km/h (2 Bft) 100,00 %
10.10.2021 12:36 13,2 C 13,3 C 11,7 C 81 % 1027,6 hPa 0,0 l/m 0 min 0 min 210 W/m 3,2 km/h (1 Bft) 100,00 %
10.10.2021 12:38 13,2 C 13,3 C 11,7 C 81 % 1027,6 hPa 0,0 l/m 0 min 0 min 201 W/m 6,4 km/h (2 Bft) 100,00 %
10.10.2021 12:40 13,2 C 13,3 C 11,7 C 80 % 1027,6 hPa 0,0 l/m 0 min 0 min 195 W/m 3,2 km/h (1 Bft) 100,00 %
10.10.2021 12:42 13,2 C 13,3 C 11,7 C 80 % 1027,6 hPa 0,0 l/m 0 min 0 min 190 W/m 3,2 km/h (1 Bft) 100,00 %
10.10.2021 12:44 13,2 C 13,9 C 11,7 C 80 % 1027,6 hPa 0,0 l/m 0 min 0 min 186 W/m 6,4 km/h (2 Bft) 100,00 %
10.10.2021 12:46 13,3 C 13,9 C 11,7 C 80 % 1027,6 hPa 0,0 l/m 0 min 0 min 186 W/m 12,9 km/h (3 Bft) 100,00 %
10.10.2021 12:48 13,3 C 13,9 C 11,7 C 80 % 1027,6 hPa 0,0 l/m 0 min 0 min 188 W/m 6,4 km/h (2 Bft) 97,87 %
10.10.2021 12:50 13,3 C 13,9 C 11,7 C 80 % 1027,7 hPa 0,0 l/m 0 min 0 min 197 W/m 3,2 km/h (1 Bft) 100,00 %
10.10.2021 12:52 13,3 C 13,9 C 11,7 C 80 % 1027,6 hPa 0,0 l/m 0 min 0 min 215 W/m 3,2 km/h (1 Bft) 100,00 %
10.10.2021 12:54 13,3 C 13,9 C 11,7 C 80 % 1027,6 hPa 0,0 l/m 0 min 0 min 233 W/m 6,4 km/h (2 Bft) 100,00 %
10.10.2021 12:56 13,4 C 14,4 C 12,3 C 80 % 1027,4 hPa 0,0 l/m 0 min 0 min 247 W/m 6,4 km/h (2 Bft) 100,00 %
10.10.2021 12:58 13,4 C 14,4 C 12,3 C 80 % 1027,4 hPa 0,0 l/m 0 min 0 min 259 W/m 3,2 km/h (1 Bft) 100,00 %
10.10.2021 13:00 13,5 C 14,4 C 12,3 C 80 % 1027,4 hPa 0,0 l/m 2 min 0 min 261 W/m 9,7 km/h (2 Bft) 100,00 %
10.10.2021 13:02 13,5 C 14,4 C 12,3 C 80 % 1027,4 hPa 0,0 l/m 2 min 0 min 264 W/m 6,4 km/h (2 Bft) 100,00 %
10.10.2021 13:04 13,6 C 14,4 C 12,3 C 80 % 1027,4 hPa 0,0 l/m 2 min 0 min 263 W/m 9,7 km/h (2 Bft) 100,00 %
10.10.2021 13:06 13,6 C 14,4 C 12,3 C 79 % 1027,4 hPa 0,0 l/m 2 min 0 min 262 W/m 12,9 km/h (3 Bft) 100,00 %
10.10.2021 13:08 13,7 C 14,4 C 12,3 C 79 % 1027,4 hPa 0,0 l/m 0 min 0 min 257 W/m 12,9 km/h (3 Bft) 95,74 %
10.10.2021 13:10 13,8 C 14,4 C 12,3 C 79 % 1027,2 hPa 0,0 l/m 0 min 0 min 241 W/m 3,2 km/h (1 Bft) 97,83 %
10.10.2021 13:12 13,8 C 14,4 C 12,3 C 79 % 1027,2 hPa 0,0 l/m 0 min 0 min 223 W/m 3,2 km/h (1 Bft) 100,00 %
10.10.2021 13:14 13,9 C 14,4 C 12,3 C 80 % 1027,1 hPa 0,0 l/m 0 min 0 min 211 W/m 6,4 km/h (2 Bft) 97,87 %
10.10.2021 13:16 13,9 C 13,9 C 12,3 C 79 % 1027,2 hPa 0,0 l/m 0 min 0 min 199 W/m 12,9 km/h (3 Bft) 100,00 %
10.10.2021 13:18 13,9 C 13,9 C 12,3 C 79 % 1027,2 hPa 0,0 l/m 0 min 0 min 185 W/m 6,4 km/h (2 Bft) 100,00 %
10.10.2021 13:20 13,9 C 13,9 C 12,3 C 79 % 1027,2 hPa 0,0 l/m 0 min 0 min 175 W/m 6,4 km/h (2 Bft) 100,00 %
10.10.2021 13:22 13,9 C 13,9 C 12,3 C 80 % 1027,1 hPa 0,0 l/m 0 min 0 min 159 W/m 9,7 km/h (2 Bft) 97,87 %
10.10.2021 13:24 13,9 C 13,9 C 11,7 C 80 % 1027,2 hPa 0,0 l/m 0 min 0 min 145 W/m 6,4 km/h (2 Bft) 97,87 %
10.10.2021 13:26 13,9 C 13,9 C 11,7 C 80 % 1027,2 hPa 0,0 l/m 0 min 0 min 140 W/m 6,4 km/h (2 Bft) 97,87 %
10.10.2021 13:28 13,9 C 13,9 C 11,7 C 79 % 1027,1 hPa 0,0 l/m 0 min 0 min 140 W/m 9,7 km/h (2 Bft) 97,87 %
10.10.2021 13:30 13,9 C 13,9 C 11,7 C 79 % 1027,1 hPa 0,0 l/m 0 min 0 min 165 W/m 3,2 km/h (1 Bft) 97,87 %
10.10.2021 13:32 13,9 C 13,9 C 11,7 C 80 % 1027,1 hPa 0,0 l/m 0 min 0 min 155 W/m 6,4 km/h (2 Bft) 97,83 %
10.10.2021 13:34 14,0 C 14,4 C 11,7 C 79 % 1027,1 hPa 0,0 l/m 0 min 0 min 176 W/m 9,7 km/h (2 Bft) 97,87 %
10.10.2021 13:36 14,0 C 14,4 C 11,7 C 79 % 1027,2 hPa 0,0 l/m 0 min 0 min 128 W/m 6,4 km/h (2 Bft) 93,62 %
10.10.2021 13:38 14,0 C 14,4 C 11,7 C 79 % 1027,2 hPa 0,0 l/m 0 min 0 min 127 W/m 6,4 km/h (2 Bft) 95,74 %
10.10.2021 13:40 14,0 C 14,4 C 11,7 C 79 % 1027,2 hPa 0,0 l/m 0 min 0 min 163 W/m 9,7 km/h (2 Bft) 95,74 %
10.10.2021 13:42 14,0 C 14,4 C 11,7 C 79 % 1027,2 hPa 0,0 l/m 0 min 0 min 179 W/m 9,7 km/h (2 Bft) 95,74 %
10.10.2021 13:44 14,1 C 15,0 C 11,7 C 79 % 1027,3 hPa 0,0 l/m 2 min 0 min 338 W/m 9,7 km/h (2 Bft) 95,65 %
10.10.2021 13:46 14,1 C 15,6 C 11,7 C 79 % 1027,3 hPa 0,0 l/m 2 min 0 min 350 W/m 3,2 km/h (1 Bft) 93,62 %
10.10.2021 13:48 14,2 C 16,1 C 11,7 C 79 % 1027,3 hPa 0,0 l/m 2 min 0 min 526 W/m 6,4 km/h (2 Bft) 95,74 %
10.10.2021 13:50 14,2 C 16,1 C 11,7 C 79 % 1027,4 hPa 0,0 l/m 2 min 0 min 549 W/m 6,4 km/h (2 Bft) 93,62 %
10.10.2021 13:52 14,2 C 17,2 C 11,7 C 79 % 1027,3 hPa 0,0 l/m 2 min 0 min 557 W/m 6,4 km/h (2 Bft) 93,62 %
10.10.2021 13:54 14,2 C 17,8 C 11,7 C 79 % 1027,2 hPa 0,0 l/m 2 min 0 min 559 W/m 6,4 km/h (2 Bft) 95,74 %
10.10.2021 13:56 14,3 C 18,9 C 11,7 C 78 % 1027,1 hPa 0,0 l/m 2 min 0 min 562 W/m 9,7 km/h (2 Bft) 95,65 %
10.10.2021 13:58 14,4 C 21,7 C 11,7 C 78 % 1027,1 hPa 0,0 l/m 2 min 0 min 563 W/m 3,2 km/h (1 Bft) 93,62 %
10.10.2021 14:00 14,5 C 23,3 C 12,3 C 78 % 1027,1 hPa 0,0 l/m 2 min 0 min 564 W/m 3,2 km/h (1 Bft) 95,74 %
10.10.2021 14:02 14,6 C 25,0 C 12,3 C 78 % 1027,0 hPa 0,0 l/m 2 min 0 min 568 W/m 9,7 km/h (2 Bft) 95,83 %
10.10.2021 14:04 14,8 C 25,0 C 12,3 C 77 % 1027,0 hPa 0,0 l/m 2 min 0 min 566 W/m 9,7 km/h (2 Bft) 97,87 %
10.10.2021 14:06 14,9 C 25,0 C 12,3 C 77 % 1027,1 hPa 0,0 l/m 2 min 0 min 561 W/m 6,4 km/h (2 Bft) 97,83 %
10.10.2021 14:08 15,0 C 26,1 C 12,3 C 76 % 1027,1 hPa 0,0 l/m 2 min 0 min 563 W/m 6,4 km/h (2 Bft) 97,87 %
10.10.2021 14:10 15,1 C 25,6 C 12,3 C 76 % 1027,1 hPa 0,0 l/m 2 min 0 min 560 W/m 9,7 km/h (2 Bft) 95,74 %
10.10.2021 14:12 15,2 C 25,6 C 12,3 C 75 % 1027,0 hPa 0,0 l/m 2 min 0 min 557 W/m 6,4 km/h (2 Bft) 100,00 %
10.10.2021 14:14 15,4 C 25,6 C 12,3 C 75 % 1027,0 hPa 0,0 l/m 2 min 0 min 552 W/m 3,2 km/h (1 Bft) 97,87 %
10.10.2021 14:16 15,5 C 25,0 C 12,3 C 75 % 1027,0 hPa 0,0 l/m 2 min 0 min 552 W/m 6,4 km/h (2 Bft) 97,87 %
10.10.2021 14:18 15,5 C 24,4 C 12,3 C 74 % 1027,0 hPa 0,0 l/m 2 min 0 min 552 W/m 6,4 km/h (2 Bft) 97,87 %
10.10.2021 14:20 15,6 C 24,4 C 12,3 C 74 % 1027,0 hPa 0,0 l/m 2 min 0 min 550 W/m 9,7 km/h (2 Bft) 97,83 %
10.10.2021 14:22 15,7 C 24,4 C 12,3 C 73 % 1027,0 hPa 0,0 l/m 2 min 0 min 549 W/m 6,4 km/h (2 Bft) 100,00 %
10.10.2021 14:24 15,8 C 24,4 C 12,3 C 73 % 1027,0 hPa 0,0 l/m 2 min 0 min 549 W/m 6,4 km/h (2 Bft) 97,87 %
10.10.2021 14:26 15,8 C 24,4 C 12,3 C 73 % 1027,0 hPa 0,0 l/m 2 min 0 min 542 W/m 6,4 km/h (2 Bft) 97,87 %
10.10.2021 14:28 15,9 C 23,9 C 12,3 C 73 % 1027,0 hPa 0,0 l/m 2 min 0 min 540 W/m 9,7 km/h (2 Bft) 100,00 %
10.10.2021 14:30 16,0 C 21,7 C 12,3 C 72 % 1027,0 hPa 0,0 l/m 2 min 0 min 531 W/m 3,2 km/h (1 Bft) 100,00 %
10.10.2021 14:32 16,0 C 20,0 C 12,3 C 72 % 1027,0 hPa 0,0 l/m 2 min 0 min 530 W/m 6,4 km/h (2 Bft) 100,00 %
10.10.2021 14:34 16,0 C 18,3 C 12,3 C 71 % 1026,9 hPa 0,0 l/m 2 min 0 min 532 W/m 6,4 km/h (2 Bft) 97,87 %
10.10.2021 14:36 16,0 C 17,2 C 12,3 C 71 % 1027,0 hPa 0,0 l/m 2 min 0 min 534 W/m 9,7 km/h (2 Bft) 100,00 %
10.10.2021 14:38 16,0 C 16,1 C 12,3 C 69 % 1026,9 hPa 0,0 l/m 2 min 0 min 535 W/m 6,4 km/h (2 Bft) 100,00 %
10.10.2021 14:40 16,0 C 16,1 C 12,8 C 69 % 1026,9 hPa 0,0 l/m 2 min 0 min 533 W/m 6,4 km/h (2 Bft) 100,00 %
10.10.2021 14:42 16,0 C 15,6 C 12,8 C 70 % 1026,9 hPa 0,0 l/m 2 min 0 min 531 W/m 6,4 km/h (2 Bft) 97,83 %
10.10.2021 14:44 16,0 C 15,6 C 12,3 C 70 % 1026,9 hPa 0,0 l/m 2 min 0 min 526 W/m 9,7 km/h (2 Bft) 97,87 %
10.10.2021 14:46 16,1 C 15,6 C 12,3 C 70 % 1026,9 hPa 0,0 l/m 2 min 0 min 522 W/m 9,7 km/h (2 Bft) 97,87 %
10.10.2021 14:48 16,1 C 15,6 C 12,3 C 71 % 1026,8 hPa 0,0 l/m 2 min 0 min 517 W/m 6,4 km/h (2 Bft) 97,87 %
10.10.2021 14:50 16,2 C 15,6 C 12,8 C 72 % 1026,8 hPa 0,0 l/m 2 min 0 min 516 W/m 6,4 km/h (2 Bft) 95,74 %
10.10.2021 14:52 16,3 C 15,6 C 12,8 C 73 % 1026,8 hPa 0,0 l/m 2 min 0 min 513 W/m 6,4 km/h (2 Bft) 95,74 %
10.10.2021 14:54 16,3 C 15,6 C 12,8 C 73 % 1026,9 hPa 0,0 l/m 2 min 0 min 509 W/m 6,4 km/h (2 Bft) 97,83 %
10.10.2021 14:56 16,3 C 15,6 C 12,8 C 72 % 1026,9 hPa 0,0 l/m 2 min 0 min 507 W/m 6,4 km/h (2 Bft) 95,74 %
10.10.2021 14:58 16,3 C 15,6 C 12,8 C 72 % 1026,9 hPa 0,0 l/m 2 min 0 min 503 W/m 6,4 km/h (2 Bft) 97,87 %
10.10.2021 15:00 16,3 C 15,6 C 12,8 C 72 % 1026,8 hPa 0,0 l/m 2 min 0 min 496 W/m 9,7 km/h (2 Bft) 97,87 %
10.10.2021 15:02 16,3 C 15,6 C 12,8 C 72 % 1026,9 hPa 0,0 l/m 2 min 0 min 487 W/m 6,4 km/h (2 Bft) 97,87 %
10.10.2021 15:04 16,3 C 15,6 C 12,8 C 73 % 1026,8 hPa 0,0 l/m 2 min 0 min 483 W/m 9,7 km/h (2 Bft) 97,87 %
10.10.2021 15:06 16,3 C 15,6 C 12,8 C 72 % 1026,8 hPa 0,0 l/m 2 min 0 min 482 W/m 3,2 km/h (1 Bft) 97,83 %
10.10.2021 15:08 16,2 C 15,6 C 12,8 C 72 % 1026,8 hPa 0,0 l/m 2 min 0 min 476 W/m 6,4 km/h (2 Bft) 97,87 %
10.10.2021 15:10 16,1 C 15,6 C 12,3 C 72 % 1026,8 hPa 0,0 l/m 2 min 0 min 474 W/m 6,4 km/h (2 Bft) 97,87 %
10.10.2021 15:12 16,1 C 15,6 C 12,8 C 72 % 1026,8 hPa 0,0 l/m 2 min 0 min 465 W/m 3,2 km/h (1 Bft) 97,87 %
10.10.2021 15:14 16,1 C 15,6 C 12,8 C 73 % 1026,7 hPa 0,0 l/m 2 min 0 min 451 W/m 3,2 km/h (1 Bft) 97,87 %
10.10.2021 15:16 16,2 C 15,6 C 12,8 C 73 % 1026,7 hPa 0,0 l/m 2 min 0 min 461 W/m 9,7 km/h (2 Bft) 97,87 %
10.10.2021 15:18 16,1 C 16,1 C 12,8 C 72 % 1026,7 hPa 0,0 l/m 2 min 0 min 462 W/m 6,4 km/h (2 Bft) 97,83 %
10.10.2021 15:20 16,1 C 16,1 C 12,8 C 73 % 1026,7 hPa 0,0 l/m 2 min 0 min 463 W/m 6,4 km/h (2 Bft) 97,87 %
10.10.2021 15:22 16,1 C 16,1 C 12,8 C 73 % 1026,7 hPa 0,0 l/m 2 min 0 min 458 W/m 6,4 km/h (2 Bft) 97,87 %
10.10.2021 15:24 16,1 C 15,6 C 12,8 C 72 % 1026,6 hPa 0,0 l/m 2 min 0 min 455 W/m 6,4 km/h (2 Bft) 95,74 %
10.10.2021 15:26 16,0 C 15,6 C 12,8 C 72 % 1026,6 hPa 0,0 l/m 2 min 0 min 456 W/m 3,2 km/h (1 Bft) 95,74 %
10.10.2021 15:28 16,0 C 15,6 C 12,8 C 72 % 1026,7 hPa 0,0 l/m 2 min 0 min 455 W/m 6,4 km/h (2 Bft) 97,87 %
10.10.2021 15:30 16,1 C 15,6 C 12,8 C 71 % 1026,7 hPa 0,0 l/m 2 min 0 min 445 W/m 6,4 km/h (2 Bft) 97,83 %
10.10.2021 15:32 16,1 C 15,6 C 12,8 C 71 % 1026,6 hPa 0,0 l/m 2 min 0 min 433 W/m 3,2 km/h (1 Bft) 100,00 %
10.10.2021 15:34 16,1 C 16,1 C 12,8 C 70 % 1026,6 hPa 0,0 l/m 2 min 0 min 427 W/m 6,4 km/h (2 Bft) 95,65 %
10.10.2021 15:36 16,2 C 16,1 C 12,8 C 71 % 1026,5 hPa 0,0 l/m 2 min 0 min 424 W/m 3,2 km/h (1 Bft) 97,87 %
10.10.2021 15:38 16,3 C 16,1 C 12,8 C 71 % 1026,5 hPa 0,0 l/m 2 min 0 min 424 W/m 6,4 km/h (2 Bft) 97,87 %
10.10.2021 15:40 16,3 C 16,1 C 13,4 C 71 % 1026,5 hPa 0,0 l/m 2 min 0 min 422 W/m 6,4 km/h (2 Bft) 97,87 %
10.10.2021 15:42 16,3 C 16,1 C 13,4 C 71 % 1026,5 hPa 0,0 l/m 2 min 0 min 419 W/m 9,7 km/h (2 Bft) 95,74 %
10.10.2021 15:44 16,3 C 16,1 C 13,4 C 70 % 1026,5 hPa 0,0 l/m 2 min 0 min 417 W/m 3,2 km/h (1 Bft) 97,87 %
10.10.2021 15:46 16,3 C 16,1 C 13,4 C 70 % 1026,5 hPa 0,0 l/m 2 min 0 min 418 W/m 3,2 km/h (1 Bft) 97,83 %
10.10.2021 15:48 16,3 C 16,1 C 13,4 C 70 % 1026,5 hPa 0,0 l/m 2 min 0 min 412 W/m 3,2 km/h (1 Bft) 100,00 %
10.10.2021 15:50 16,4 C 16,1 C 12,8 C 71 % 1026,5 hPa 0,0 l/m 2 min 0 min 408 W/m 6,4 km/h (2 Bft) 97,87 %
10.10.2021 15:52 16,4 C 16,1 C 12,8 C 71 % 1026,4 hPa 0,0 l/m 2 min 0 min 406 W/m 9,7 km/h (2 Bft) 97,87 %
10.10.2021 15:54 16,4 C 16,1 C 12,8 C 70 % 1026,4 hPa 0,0 l/m 2 min 0 min 404 W/m 6,4 km/h (2 Bft) 97,87 %
10.10.2021 15:56 16,4 C 16,1 C 12,8 C 70 % 1026,4 hPa 0,0 l/m 2 min 0 min 400 W/m 6,4 km/h (2 Bft) 95,65 %
10.10.2021 15:58 16,4 C 16,1 C 12,8 C 70 % 1026,4 hPa 0,0 l/m 2 min 0 min 392 W/m 9,7 km/h (2 Bft) 95,74 %
10.10.2021 16:00 16,4 C 16,1 C 12,8 C 70 % 1026,4 hPa 0,0 l/m 2 min 0 min 381 W/m 6,4 km/h (2 Bft) 97,87 %
10.10.2021 16:02 16,5 C 16,1 C 12,8 C 71 % 1026,4 hPa 0,0 l/m 2 min 0 min 381 W/m 6,4 km/h (2 Bft) 95,74 %
10.10.2021 16:04 16,5 C 16,1 C 12,8 C 70 % 1026,3 hPa 0,0 l/m 2 min 0 min 371 W/m 3,2 km/h (1 Bft) 97,87 %
10.10.2021 16:06 16,5 C 16,1 C 12,8 C 71 % 1026,3 hPa 0,0 l/m 2 min 0 min 369 W/m 3,2 km/h (1 Bft) 97,87 %
10.10.2021 16:08 16,5 C 16,1 C 12,8 C 71 % 1026,3 hPa 0,0 l/m 2 min 0 min 366 W/m 6,4 km/h (2 Bft) 97,83 %
10.10.2021 16:10 16,5 C 16,1 C 12,8 C 71 % 1026,3 hPa 0,0 l/m 2 min 0 min 365 W/m 6,4 km/h (2 Bft) 97,87 %
10.10.2021 16:12 16,6 C 16,1 C 12,8 C 71 % 1026,4 hPa 0,0 l/m 2 min 0 min 360 W/m 3,2 km/h (1 Bft) 100,00 %
10.10.2021 16:14 16,6 C 16,1 C 13,4 C 71 % 1026,3 hPa 0,0 l/m 2 min 0 min 355 W/m 9,7 km/h (2 Bft) 100,00 %
10.10.2021 16:16 16,6 C 16,7 C 13,4 C 72 % 1026,4 hPa 0,0 l/m 2 min 0 min 346 W/m 6,4 km/h (2 Bft) 100,00 %
10.10.2021 16:18 16,7 C 16,7 C 13,4 C 71 % 1026,3 hPa 0,0 l/m 2 min 0 min 337 W/m 6,4 km/h (2 Bft) 100,00 %
10.10.2021 16:20 16,7 C 16,7 C 13,4 C 70 % 1026,3 hPa 0,0 l/m 2 min 0 min 331 W/m 6,4 km/h (2 Bft) 100,00 %
10.10.2021 16:22 16,8 C 16,7 C 13,4 C 70 % 1026,3 hPa 0,0 l/m 2 min 0 min 325 W/m 6,4 km/h (2 Bft) 100,00 %
10.10.2021 16:24 16,8 C 16,7 C 13,4 C 70 % 1026,3 hPa 0,0 l/m 2 min 0 min 318 W/m 6,4 km/h (2 Bft) 100,00 %
10.10.2021 16:26 16,8 C 16,7 C 12,8 C 70 % 1026,3 hPa 0,0 l/m 2 min 0 min 314 W/m 9,7 km/h (2 Bft) 95,74 %
10.10.2021 16:28 16,7 C 16,7 C 12,8 C 70 % 1026,2 hPa 0,0 l/m 2 min 0 min 312 W/m 3,2 km/h (1 Bft) 100,00 %
10.10.2021 16:30 16,7 C 16,7 C 12,8 C 71 % 1026,2 hPa 0,0 l/m 2 min 0 min 309 W/m 6,4 km/h (2 Bft) 100,00 %
10.10.2021 16:32 16,7 C 16,7 C 12,8 C 71 % 1026,2 hPa 0,0 l/m 2 min 0 min 304 W/m 9,7 km/h (2 Bft) 100,00 %
10.10.2021 16:34 16,7 C 16,7 C 12,8 C 71 % 1026,3 hPa 0,0 l/m 2 min 0 min 301 W/m 9,7 km/h (2 Bft) 100,00 %
10.10.2021 16:36 16,8 C 16,7 C 12,8 C 72 % 1026,3 hPa 0,0 l/m 2 min 0 min 298 W/m 9,7 km/h (2 Bft) 100,00 %
10.10.2021 16:38 16,8 C 17,2 C 12,8 C 72 % 1026,3 hPa 0,0 l/m 2 min 0 min 277 W/m 12,9 km/h (3 Bft) 97,14 %
10.10.2021 16:40 16,8 C 17,2 C 12,8 C 72 % 1026,2 hPa 0,0 l/m 2 min 0 min 275 W/m 6,4 km/h (2 Bft) 100,00 %
10.10.2021 16:42 16,8 C 17,2 C 12,8 C 72 % 1026,2 hPa 0,0 l/m 2 min 0 min 276 W/m 9,7 km/h (2 Bft) 100,00 %
10.10.2021 16:44 16,7 C 17,2 C 12,8 C 72 % 1026,2 hPa 0,0 l/m 2 min 0 min 265 W/m 9,7 km/h (2 Bft) 100,00 %
10.10.2021 16:46 16,7 C 17,2 C 12,8 C 72 % 1026,3 hPa 0,0 l/m 2 min 0 min 257 W/m 9,7 km/h (2 Bft) 100,00 %
10.10.2021 16:48 16,7 C 16,7 C 12,8 C 72 % 1026,2 hPa 0,0 l/m 2 min 0 min 252 W/m 3,2 km/h (1 Bft) 100,00 %
10.10.2021 16:50 16,7 C 16,7 C 12,8 C 73 % 1026,2 hPa 0,0 l/m 2 min 0 min 246 W/m 6,4 km/h (2 Bft) 97,87 %
10.10.2021 16:52 16,6 C 16,1 C 12,8 C 72 % 1026,2 hPa 0,0 l/m 2 min 0 min 240 W/m 6,4 km/h (2 Bft) 97,87 %
10.10.2021 16:54 16,6 C 16,1 C 12,8 C 72 % 1026,3 hPa 0,0 l/m 2 min 0 min 236 W/m 6,4 km/h (2 Bft) 97,87 %
10.10.2021 16:56 16,6 C 16,1 C 12,8 C 72 % 1026,3 hPa 0,0 l/m 2 min 0 min 227 W/m 9,7 km/h (2 Bft) 97,83 %
10.10.2021 16:58 16,6 C 15,6 C 12,8 C 72 % 1026,3 hPa 0,0 l/m 2 min 0 min 217 W/m 12,9 km/h (3 Bft) 97,87 %
10.10.2021 17:00 16,6 C 15,6 C 12,8 C 71 % 1026,3 hPa 0,0 l/m 2 min 0 min 208 W/m 9,7 km/h (2 Bft) 97,87 %
10.10.2021 17:02 16,6 C 15,6 C 12,8 C 71 % 1026,3 hPa 0,0 l/m 2 min 0 min 202 W/m 9,7 km/h (2 Bft) 97,87 %
10.10.2021 17:04 16,5 C 15,6 C 12,8 C 72 % 1026,3 hPa 0,0 l/m 2 min 0 min 199 W/m 9,7 km/h (2 Bft) 97,87 %
10.10.2021 17:06 16,5 C 15,6 C 12,8 C 72 % 1026,3 hPa 0,0 l/m 2 min 0 min 188 W/m 6,4 km/h (2 Bft) 94,83 %
10.10.2021 17:08 16,4 C 15,6 C 12,8 C 73 % 1026,3 hPa 0,0 l/m 2 min 0 min 181 W/m 6,4 km/h (2 Bft) 100,00 %
10.10.2021 17:10 16,4 C 15,6 C 12,8 C 73 % 1026,3 hPa 0,0 l/m 2 min 0 min 175 W/m 3,2 km/h (1 Bft) 95,74 %
10.10.2021 17:12 16,4 C 15,6 C 12,8 C 74 % 1026,3 hPa 0,0 l/m 2 min 0 min 143 W/m 6,4 km/h (2 Bft) 95,74 %
10.10.2021 17:14 16,4 C 15,6 C 12,8 C 74 % 1026,2 hPa 0,0 l/m 0 min 0 min 81 W/m 3,2 km/h (1 Bft) 97,87 %
10.10.2021 17:16 16,3 C 15,6 C 12,3 C 74 % 1026,2 hPa 0,0 l/m 0 min 0 min 76 W/m 3,2 km/h (1 Bft) 96,00 %
10.10.2021 17:18 16,2 C 15,0 C 12,3 C 74 % 1026,1 hPa 0,0 l/m 0 min 0 min 73 W/m 3,2 km/h (1 Bft) 97,83 %
10.10.2021 17:20 16,1 C 15,0 C 12,3 C 75 % 1026,1 hPa 0,0 l/m 0 min 0 min 71 W/m 3,2 km/h (1 Bft) 97,87 %
10.10.2021 17:22 16,1 C 15,0 C 12,3 C 75 % 1026,2 hPa 0,0 l/m 0 min 0 min 70 W/m 6,4 km/h (2 Bft) 97,87 %
10.10.2021 17:24 16,1 C 15,0 C 12,3 C 75 % 1026,1 hPa 0,0 l/m 0 min 0 min 69 W/m 3,2 km/h (1 Bft) 97,87 %
10.10.2021 17:26 16,0 C 15,0 C 12,3 C 76 % 1026,1 hPa 0,0 l/m 0 min 0 min 69 W/m 3,2 km/h (1 Bft) 97,87 %
10.10.2021 17:28 16,0 C 15,0 C 12,3 C 76 % 1026,1 hPa 0,0 l/m 0 min 0 min 69 W/m 9,7 km/h (2 Bft) 97,87 %
10.10.2021 17:30 16,0 C 15,0 C 12,3 C 76 % 1026,1 hPa 0,0 l/m 0 min 0 min 69 W/m 3,2 km/h (1 Bft) 95,65 %
10.10.2021 17:32 15,9 C 15,0 C 12,3 C 76 % 1026,1 hPa 0,0 l/m 0 min 0 min 67 W/m 6,4 km/h (2 Bft) 93,75 %
10.10.2021 17:34 15,9 C 15,0 C 12,3 C 76 % 1026,1 hPa 0,0 l/m 0 min 0 min 66 W/m 6,4 km/h (2 Bft) 95,74 %
10.10.2021 17:36 15,9 C 15,0 C 12,3 C 77 % 1026,1 hPa 0,0 l/m 0 min 0 min 65 W/m 9,7 km/h (2 Bft) 95,74 %
10.10.2021 17:38 15,8 C 14,4 C 12,3 C 77 % 1026,1 hPa 0,0 l/m 0 min 0 min 65 W/m 9,7 km/h (2 Bft) 95,74 %
10.10.2021 17:40 15,7 C 14,4 C 12,3 C 77 % 1026,1 hPa 0,0 l/m 0 min 0 min 64 W/m 9,7 km/h (2 Bft) 93,48 %
10.10.2021 17:42 15,6 C 14,4 C 12,3 C 77 % 1026,1 hPa 0,0 l/m 0 min 0 min 63 W/m 6,4 km/h (2 Bft) 97,87 %
10.10.2021 17:44 15,6 C 14,4 C 12,3 C 77 % 1026,1 hPa 0,0 l/m 0 min 0 min 63 W/m 9,7 km/h (2 Bft) 95,74 %
10.10.2021 17:46 15,5 C 14,4 C 12,3 C 78 % 1026,1 hPa 0,0 l/m 0 min 0 min 63 W/m 6,4 km/h (2 Bft) 97,87 %
10.10.2021 17:48 15,5 C 15,0 C 12,3 C 78 % 1026,1 hPa 0,0 l/m 0 min 0 min 62 W/m 3,2 km/h (1 Bft) 95,74 %
10.10.2021 17:50 15,5 C 14,4 C 12,3 C 78 % 1026,1 hPa 0,0 l/m 0 min 0 min 62 W/m 6,4 km/h (2 Bft) 97,87 %
10.10.2021 17:52 15,4 C 14,4 C 12,3 C 78 % 1026,1 hPa 0,0 l/m 0 min 0 min 60 W/m 9,7 km/h (2 Bft) 97,83 %
10.10.2021 17:54 15,4 C 14,4 C 12,3 C 77 % 1026,1 hPa 0,0 l/m 0 min 0 min 61 W/m 6,4 km/h (2 Bft) 97,87 %
10.10.2021 17:56 15,4 C 14,4 C 12,3 C 77 % 1026,1 hPa 0,0 l/m 0 min 0 min 64 W/m 9,7 km/h (2 Bft) 95,74 %
10.10.2021 17:58 15,3 C 14,4 C 12,3 C 77 % 1026,2 hPa 0,0 l/m 2 min 0 min 68 W/m 6,4 km/h (2 Bft) 93,62 %
10.10.2021 18:00 15,3 C 14,4 C 12,3 C 77 % 1026,2 hPa 0,0 l/m 2 min 0 min 70 W/m 9,7 km/h (2 Bft) 95,74 %
10.10.2021 18:02 15,2 C 14,4 C 12,3 C 77 % 1026,2 hPa 0,0 l/m 2 min 0 min 68 W/m 9,7 km/h (2 Bft) 95,74 %
10.10.2021 18:04 15,2 C 14,4 C 12,3 C 77 % 1026,2 hPa 0,0 l/m 2 min 0 min 62 W/m 9,7 km/h (2 Bft) 93,48 %
10.10.2021 18:08 15,1 C 14,4 C 12,3 C 77 % 1026,2 hPa 0,0 l/m 4 min 0 min 58 W/m 6,4 km/h (2 Bft) 95,74 %
10.10.2021 18:10 15,1 C 14,4 C 12,3 C 77 % 1026,2 hPa 0,0 l/m 2 min 0 min 54 W/m 6,4 km/h (2 Bft) 95,74 %
10.10.2021 18:12 15,1 C 14,4 C 11,7 C 77 % 1026,2 hPa 0,0 l/m 2 min 0 min 51 W/m 6,4 km/h (2 Bft) 97,87 %
10.10.2021 18:14 15,0 C 14,4 C 11,7 C 78 % 1026,1 hPa 0,0 l/m 2 min 0 min 43 W/m 3,2 km/h (1 Bft) 97,83 %
10.10.2021 18:16 15,0 C 13,9 C 11,7 C 78 % 1026,1 hPa 0,0 l/m 0 min 0 min 39 W/m 3,2 km/h (1 Bft) 97,87 %
10.10.2021 18:18 15,0 C 13,9 C 11,7 C 78 % 1026,2 hPa 0,0 l/m 2 min 0 min 39 W/m 3,2 km/h (1 Bft) 93,62 %
10.10.2021 18:20 14,9 C 13,9 C 11,7 C 78 % 1026,1 hPa 0,0 l/m 2 min 0 min 36 W/m 6,4 km/h (2 Bft) 95,74 %
10.10.2021 18:22 14,9 C 13,9 C 11,7 C 78 % 1026,1 hPa 0,0 l/m 2 min 0 min 32 W/m 6,4 km/h (2 Bft) 97,87 %
10.10.2021 18:24 14,8 C 13,9 C 11,7 C 78 % 1026,1 hPa 0,0 l/m 0 min 0 min 29 W/m 3,2 km/h (1 Bft) 97,87 %
10.10.2021 18:26 14,8 C 13,9 C 11,1 C 78 % 1026,1 hPa 0,0 l/m 0 min 0 min 26 W/m 3,2 km/h (1 Bft) 97,83 %
10.10.2021 18:28 14,7 C 13,3 C 11,1 C 78 % 1026,0 hPa 0,0 l/m 0 min 0 min 24 W/m 3,2 km/h (1 Bft) 97,87 %
10.10.2021 18:30 14,6 C 13,3 C 11,1 C 78 % 1026,1 hPa 0,0 l/m 2 min 0 min 23 W/m 0,0 km/h (0 Bft) 95,74 %
10.10.2021 18:32 14,6 C 13,3 C 11,1 C 79 % 1026,0 hPa 0,0 l/m 2 min 0 min 20 W/m 3,2 km/h (1 Bft) 95,74 %
10.10.2021 18:34 14,5 C 13,3 C 11,1 C 79 % 1026,0 hPa 0,0 l/m 0 min 0 min 19 W/m 3,2 km/h (1 Bft) 97,87 %
10.10.2021 18:36 14,5 C 12,8 C 11,1 C 79 % 1026,0 hPa 0,0 l/m 0 min 0 min 17 W/m 3,2 km/h (1 Bft) 97,87 %
10.10.2021 18:38 14,4 C 12,8 C 11,1 C 79 % 1026,0 hPa 0,0 l/m 0 min 0 min 15 W/m 3,2 km/h (1 Bft) 97,83 %
10.10.2021 18:40 14,4 C 12,8 C 10,6 C 79 % 1026,1 hPa 0,0 l/m 0 min 0 min 13 W/m 0,0 km/h (0 Bft) 97,87 %
10.10.2021 18:42 14,3 C 12,8 C 10,6 C 79 % 1026,1 hPa 0,0 l/m 0 min 0 min 12 W/m 3,2 km/h (1 Bft) 97,87 %
10.10.2021 18:44 14,2 C 12,8 C 10,6 C 79 % 1026,1 hPa 0,0 l/m 0 min 0 min 10 W/m 0,0 km/h (0 Bft) 97,87 %
10.10.2021 18:46 14,2 C 12,2 C 10,6 C 80 % 1026,1 hPa 0,0 l/m 0 min 0 min 8 W/m 0,0 km/h (0 Bft) 97,87 %
10.10.2021 18:48 14,2 C 12,2 C 10,6 C 80 % 1026,1 hPa 0,0 l/m 0 min 0 min 7 W/m 0,0 km/h (0 Bft) 97,87 %
10.10.2021 18:50 14,2 C 12,2 C 10,0 C 80 % 1026,0 hPa 0,0 l/m 0 min 0 min 5 W/m 3,2 km/h (1 Bft) 100,00 %
10.10.2021 18:52 14,1 C 12,2 C 10,0 C 80 % 1026,0 hPa 0,0 l/m 0 min 0 min 5 W/m 0,0 km/h (0 Bft) 55,56 %
10.10.2021 18:54 14,1 C 11,7 C 10,0 C 80 % 1026,0 hPa 0,0 l/m 0 min 0 min 4 W/m 0,0 km/h (0 Bft) 100,00 %
10.10.2021 18:56 14,0 C 11,7 C 9,5 C 80 % 1026,0 hPa 0,0 l/m 0 min 0 min 0 W/m 0,0 km/h (0 Bft) 100,00 %
10.10.2021 18:58 14,0 C 11,7 C 9,5 C 80 % 1026,0 hPa 0,0 l/m 0 min 0 min 0 W/m 0,0 km/h (0 Bft) 100,00 %
10.10.2021 19:00 13,9 C 11,7 C 9,5 C 80 % 1026,0 hPa 0,0 l/m 0 min 0 min 0 W/m 0,0 km/h (0 Bft) 100,00 %
10.10.2021 19:02 13,9 C 11,1 C 9,5 C 80 % 1026,0 hPa 0,0 l/m 0 min 0 min 0 W/m 0,0 km/h (0 Bft) 100,00 %
10.10.2021 19:04 13,8 C 11,1 C 9,5 C 80 % 1026,1 hPa 0,0 l/m 0 min 0 min 0 W/m 0,0 km/h (0 Bft) 100,00 %
10.10.2021 19:06 13,7 C 11,1 C 9,5 C 80 % 1026,1 hPa 0,0 l/m 0 min 0 min 0 W/m 0,0 km/h (0 Bft) 100,00 %
10.10.2021 19:08 13,6 C 11,1 C 8,9 C 81 % 1026,1 hPa 0,0 l/m 0 min 0 min 0 W/m 0,0 km/h (0 Bft) 100,00 %
10.10.2021 19:10 13,6 C 11,1 C 8,9 C 81 % 1026,1 hPa 0,0 l/m 0 min 0 min 0 W/m 0,0 km/h (0 Bft) 100,00 %
10.10.2021 19:12 13,5 C 10,6 C 8,9 C 81 % 1026,2 hPa 0,0 l/m 0 min 0 min 0 W/m 3,2 km/h (1 Bft) 97,83 %
10.10.2021 19:14 13,5 C 10,6 C 8,9 C 81 % 1026,2 hPa 0,0 l/m 0 min 0 min 0 W/m 3,2 km/h (1 Bft) 97,87 %
10.10.2021 19:16 13,4 C 10,6 C 8,9 C 81 % 1026,2 hPa 0,0 l/m 0 min 0 min 0 W/m 3,2 km/h (1 Bft) 97,87 %
10.10.2021 19:18 13,4 C 10,6 C 8,9 C 81 % 1026,2 hPa 0,0 l/m 0 min 0 min 0 W/m 0,0 km/h (0 Bft) 97,87 %
10.10.2021 19:20 13,3 C 10,6 C 8,9 C 82 % 1026,2 hPa 0,0 l/m 0 min 0 min 0 W/m 0,0 km/h (0 Bft) 97,87 %
10.10.2021 19:22 13,2 C 10,6 C 8,9 C 82 % 1026,2 hPa 0,0 l/m 0 min 0 min 0 W/m 0,0 km/h (0 Bft) 97,87 %
10.10.2021 19:24 13,1 C 10,6 C 8,9 C 82 % 1026,1 hPa 0,0 l/m 0 min 0 min 0 W/m 0,0 km/h (0 Bft) 97,83 %
10.10.2021 19:26 13,0 C 10,6 C 8,9 C 82 % 1026,1 hPa 0,0 l/m 0 min 0 min 0 W/m 0,0 km/h (0 Bft) 95,74 %
10.10.2021 19:28 12,9 C 10,6 C 8,9 C 82 % 1026,2 hPa 0,0 l/m 0 min 0 min 0 W/m 0,0 km/h (0 Bft) 95,74 %
10.10.2021 19:30 12,9 C 10,6 C 8,4 C 83 % 1026,2 hPa 0,0 l/m 0 min 0 min 0 W/m 0,0 km/h (0 Bft) 97,87 %
10.10.2021 19:32 12,9 C 10,0 C 8,4 C 83 % 1026,3 hPa 0,0 l/m 0 min 0 min 0 W/m 0,0 km/h (0 Bft) 97,87 %
10.10.2021 19:34 12,8 C 10,0 C 8,4 C 83 % 1026,3 hPa 0,0 l/m 0 min 0 min 0 W/m 0,0 km/h (0 Bft) 97,87 %
10.10.2021 19:36 12,7 C 10,0 C 8,4 C 83 % 1026,3 hPa 0,0 l/m 0 min 0 min 0 W/m 0,0 km/h (0 Bft) 95,65 %
10.10.2021 19:38 12,6 C 10,0 C 8,4 C 83 % 1026,4 hPa 0,0 l/m 0 min 0 min 0 W/m 0,0 km/h (0 Bft) 95,74 %
10.10.2021 19:40 12,5 C 10,0 C 8,4 C 83 % 1026,4 hPa 0,0 l/m 0 min 0 min 0 W/m 0,0 km/h (0 Bft) 100,00 %
10.10.2021 19:42 12,5 C 10,0 C 8,4 C 83 % 1026,4 hPa 0,0 l/m 0 min 0 min 0 W/m 0,0 km/h (0 Bft) 100,00 %
10.10.2021 19:44 12,4 C 10,0 C 8,4 C 84 % 1026,3 hPa 0,0 l/m 0 min 0 min 0 W/m 0,0 km/h (0 Bft) 100,00 %
10.10.2021 19:46 12,4 C 10,0 C 8,4 C 84 % 1026,3 hPa 0,0 l/m 0 min 0 min 0 W/m 0,0 km/h (0 Bft) 100,00 %
10.10.2021 19:48 12,3 C 10,0 C 8,4 C 84 % 1026,4 hPa 0,0 l/m 0 min 0 min 0 W/m 0,0 km/h (0 Bft) 100,00 %
10.10.2021 19:50 12,3 C 10,0 C 8,4 C 84 % 1026,4 hPa 0,0 l/m 0 min 0 min 0 W/m 0,0 km/h (0 Bft) 97,87 %
10.10.2021 19:52 12,2 C 10,0 C 8,4 C 84 % 1026,4 hPa 0,0 l/m 0 min 0 min 0 W/m 0,0 km/h (0 Bft) 100,00 %
10.10.2021 19:54 12,1 C 10,0 C 8,4 C 84 % 1026,5 hPa 0,0 l/m 0 min 0 min 0 W/m 0,0 km/h (0 Bft) 100,00 %
10.10.2021 19:56 12,0 C 10,0 C 8,4 C 84 % 1026,5 hPa 0,0 l/m 0 min 0 min 0 W/m 0,0 km/h (0 Bft) 100,00 %
10.10.2021 19:58 12,0 C 10,0 C 8,4 C 85 % 1026,5 hPa 0,0 l/m 0 min 0 min 0 W/m 0,0 km/h (0 Bft) 97,87 %
10.10.2021 20:00 11,9 C 9,4 C 8,4 C 85 % 1026,5 hPa 0,0 l/m 0 min 0 min 0 W/m 0,0 km/h (0 Bft) 100,00 %
10.10.2021 20:02 11,9 C 9,4 C 7,8 C 85 % 1026,5 hPa 0,0 l/m 0 min 0 min 0 W/m 0,0 km/h (0 Bft) 97,87 %
10.10.2021 20:04 11,8 C 9,4 C 7,8 C 85 % 1026,5 hPa 0,0 l/m 0 min 0 min 0 W/m 0,0 km/h (0 Bft) 100,00 %
10.10.2021 20:06 11,8 C 9,4 C 7,8 C 85 % 1026,5 hPa 0,0 l/m 0 min 0 min 0 W/m 0,0 km/h (0 Bft) 98,00 %
10.10.2021 20:08 11,7 C 9,4 C 7,8 C 85 % 1026,5 hPa 0,0 l/m 0 min 0 min 0 W/m 0,0 km/h (0 Bft) 97,96 %
10.10.2021 20:10 11,6 C 9,4 C 7,8 C 85 % 1026,6 hPa 0,0 l/m 0 min 0 min 0 W/m 0,0 km/h (0 Bft) 97,87 %
10.10.2021 20:12 11,6 C 9,4 C 7,8 C 85 % 1026,5 hPa 0,0 l/m 0 min 0 min 0 W/m 0,0 km/h (0 Bft) 97,83 %
10.10.2021 20:14 11,5 C 9,4 C 7,8 C 85 % 1026,6 hPa 0,0 l/m 0 min 0 min 0 W/m 0,0 km/h (0 Bft) 97,87 %
10.10.2021 20:16 11,5 C 9,4 C 7,8 C 85 % 1026,5 hPa 0,0 l/m 0 min 0 min 0 W/m 0,0 km/h (0 Bft) 97,87 %
10.10.2021 20:18 11,5 C 9,4 C 7,8 C 85 % 1026,5 hPa 0,0 l/m 0 min 0 min 0 W/m 0,0 km/h (0 Bft) 97,87 %
10.10.2021 20:20 11,4 C 9,4 C 7,8 C 85 % 1026,5 hPa 0,0 l/m 0 min 0 min 0 W/m 0,0 km/h (0 Bft) 97,87 %
10.10.2021 20:22 11,4 C 9,4 C 7,8 C 85 % 1026,5 hPa 0,0 l/m 0 min 0 min 0 W/m 0,0 km/h (0 Bft) 97,87 %
10.10.2021 20:24 11,3 C 9,4 C 7,8 C 86 % 1026,5 hPa 0,0 l/m 0 min 0 min 0 W/m 3,2 km/h (1 Bft) 97,83 %
10.10.2021 20:26 11,3 C 9,4 C 7,8 C 86 % 1026,5 hPa 0,0 l/m 0 min 0 min 0 W/m 3,2 km/h (1 Bft) 95,74 %
10.10.2021 20:28 11,2 C 9,4 C 7,8 C 86 % 1026,5 hPa 0,0 l/m 0 min 0 min 0 W/m 0,0 km/h (0 Bft) 95,74 %
10.10.2021 20:30 11,1 C 9,4 C 7,8 C 86 % 1026,5 hPa 0,0 l/m 0 min 0 min 0 W/m 0,0 km/h (0 Bft) 95,74 %
10.10.2021 20:32 11,1 C 9,4 C 7,8 C 86 % 1026,5 hPa 0,0 l/m 0 min 0 min 0 W/m 0,0 km/h (0 Bft) 93,62 %
10.10.2021 20:34 11,0 C 8,9 C 7,8 C 87 % 1026,5 hPa 0,0 l/m 0 min 0 min 0 W/m 0,0 km/h (0 Bft) 95,74 %
10.10.2021 20:36 11,0 C 8,9 C 7,8 C 87 % 1026,5 hPa 0,0 l/m 0 min 0 min 0 W/m 3,2 km/h (1 Bft) 93,48 %
10.10.2021 20:38 11,0 C 8,9 C 7,8 C 87 % 1026,6 hPa 0,0 l/m 0 min 0 min 0 W/m 0,0 km/h (0 Bft) 97,87 %
10.10.2021 20:40 10,9 C 8,9 C 7,8 C 87 % 1026,5 hPa 0,0 l/m 0 min 0 min 0 W/m 0,0 km/h (0 Bft) 95,74 %
10.10.2021 20:42 10,9 C 8,9 C 7,8 C 87 % 1026,5 hPa 0,0 l/m 0 min 0 min 0 W/m 0,0 km/h (0 Bft) 95,74 %
10.10.2021 20:44 10,9 C 8,9 C 7,8 C 87 % 1026,5 hPa 0,0 l/m 0 min 0 min 0 W/m 0,0 km/h (0 Bft) 95,74 %
10.10.2021 20:46 10,8 C 8,9 C 7,8 C 87 % 1026,6 hPa 0,0 l/m 0 min 0 min 0 W/m 0,0 km/h (0 Bft) 97,87 %
10.10.2021 20:48 10,8 C 8,9 C 7,8 C 88 % 1026,6 hPa 0,0 l/m 0 min 0 min 0 W/m 0,0 km/h (0 Bft) 97,83 %
10.10.2021 20:50 10,8 C 8,9 C 7,8 C 88 % 1026,5 hPa 0,0 l/m 0 min 0 min 0 W/m 0,0 km/h (0 Bft) 95,74 %
10.10.2021 20:52 10,7 C 8,9 C 7,8 C 87 % 1026,5 hPa 0,0 l/m 0 min 0 min 0 W/m 0,0 km/h (0 Bft) 95,74 %
10.10.2021 20:54 10,6 C 8,9 C 7,3 C 87 % 1026,5 hPa 0,0 l/m 0 min 0 min 0 W/m 0,0 km/h (0 Bft) 93,62 %
10.10.2021 20:56 10,6 C 8,9 C 7,3 C 88 % 1026,5 hPa 0,0 l/m 0 min 0 min 0 W/m 0,0 km/h (0 Bft) 95,74 %
10.10.2021 20:58 10,6 C 8,9 C 7,3 C 88 % 1026,5 hPa 0,0 l/m 0 min 0 min 0 W/m 0,0 km/h (0 Bft) 95,74 %
10.10.2021 21:00 10,5 C 8,9 C 7,3 C 88 % 1026,6 hPa 0,0 l/m 0 min 0 min 0 W/m 0,0 km/h (0 Bft) 95,65 %
10.10.2021 21:02 10,5 C 8,9 C 7,3 C 88 % 1026,7 hPa 0,0 l/m 0 min 0 min 0 W/m 0,0 km/h (0 Bft) 95,74 %
10.10.2021 21:04 10,5 C 8,9 C 7,3 C 88 % 1026,7 hPa 0,0 l/m 0 min 0 min 0 W/m 0,0 km/h (0 Bft) 91,49 %
10.10.2021 21:06 10,5 C 8,9 C 7,8 C 88 % 1026,7 hPa 0,0 l/m 0 min 0 min 0 W/m 0,0 km/h (0 Bft) 95,74 %
10.10.2021 21:08 10,4 C 8,9 C 7,8 C 88 % 1026,7 hPa 0,0 l/m 0 min 0 min 0 W/m 0,0 km/h (0 Bft) 93,62 %
10.10.2021 21:10 10,4 C 8,9 C 7,8 C 88 % 1026,7 hPa 0,0 l/m 0 min 0 min 0 W/m 0,0 km/h (0 Bft) 95,74 %
10.10.2021 21:12 10,4 C 8,9 C 7,8 C 88 % 1026,8 hPa 0,0 l/m 0 min 0 min 0 W/m 0,0 km/h (0 Bft) 95,65 %
10.10.2021 21:14 10,4 C 8,9 C 7,8 C 88 % 1026,8 hPa 0,0 l/m 0 min 0 min 0 W/m 0,0 km/h (0 Bft) 95,74 %
10.10.2021 21:16 10,3 C 8,9 C 7,8 C 88 % 1026,8 hPa 0,0 l/m 0 min 0 min 0 W/m 0,0 km/h (0 Bft) 95,74 %
10.10.2021 21:18 10,3 C 8,9 C 7,8 C 88 % 1026,7 hPa 0,0 l/m 0 min 0 min 0 W/m 0,0 km/h (0 Bft) 93,62 %
10.10.2021 21:20 10,3 C 8,9 C 7,8 C 89 % 1026,7 hPa 0,0 l/m 0 min 0 min 0 W/m 0,0 km/h (0 Bft) 95,74 %
10.10.2021 21:22 10,2 C 8,9 C 7,8 C 89 % 1026,7 hPa 0,0 l/m 0 min 0 min 0 W/m 0,0 km/h (0 Bft) 97,87 %
10.10.2021 21:24 10,2 C 8,9 C 7,3 C 89 % 1026,7 hPa 0,0 l/m 0 min 0 min 0 W/m 0,0 km/h (0 Bft) 97,83 %
10.10.2021 21:26 10,2 C 8,9 C 7,3 C 89 % 1026,7 hPa 0,0 l/m 0 min 0 min 0 W/m 0,0 km/h (0 Bft) 97,87 %
10.10.2021 21:28 10,1 C 8,9 C 7,3 C 89 % 1026,7 hPa 0,0 l/m 0 min 0 min 0 W/m 0,0 km/h (0 Bft) 95,74 %
10.10.2021 21:30 10,1 C 8,9 C 7,3 C 89 % 1026,7 hPa 0,0 l/m 0 min 0 min 0 W/m 0,0 km/h (0 Bft) 97,87 %
10.10.2021 21:32 10,1 C 8,3 C 7,3 C 89 % 1026,7 hPa 0,0 l/m 0 min 0 min 0 W/m 0,0 km/h (0 Bft) 100,00 %
10.10.2021 21:34 10,1 C 8,3 C 7,3 C 89 % 1026,7 hPa 0,0 l/m 0 min 0 min 0 W/m 0,0 km/h (0 Bft) 100,00 %
10.10.2021 21:36 10,0 C 8,3 C 7,3 C 89 % 1026,7 hPa 0,0 l/m 0 min 0 min 0 W/m 0,0 km/h (0 Bft) 100,00 %
10.10.2021 21:38 10,0 C 8,3 C 7,3 C 89 % 1026,6 hPa 0,0 l/m 0 min 0 min 0 W/m 0,0 km/h (0 Bft) 97,87 %
10.10.2021 21:40 10,0 C 8,3 C 7,3 C 89 % 1026,6 hPa 0,0 l/m 0 min 0 min 0 W/m 0,0 km/h (0 Bft) 100,00 %
10.10.2021 21:42 10,0 C 8,3 C 7,3 C 89 % 1026,6 hPa 0,0 l/m 0 min 0 min 0 W/m 0,0 km/h (0 Bft) 100,00 %
10.10.2021 21:44 9,9 C 8,3 C 7,3 C 89 % 1026,6 hPa 0,0 l/m 0 min 0 min 0 W/m 0,0 km/h (0 Bft) 100,00 %
10.10.2021 21:46 9,9 C 8,3 C 7,3 C 89 % 1026,7 hPa 0,0 l/m 0 min 0 min 0 W/m 0,0 km/h (0 Bft) 97,83 %
10.10.2021 21:48 9,9 C 8,3 C 7,3 C 89 % 1026,7 hPa 0,0 l/m 0 min 0 min 0 W/m 0,0 km/h (0 Bft) 100,00 %
10.10.2021 21:50 9,9 C 8,3 C 7,3 C 89 % 1026,7 hPa 0,0 l/m 0 min 0 min 0 W/m 0,0 km/h (0 Bft) 100,00 %
10.10.2021 21:52 9,9 C 8,3 C 7,3 C 89 % 1026,8 hPa 0,0 l/m 0 min 0 min 0 W/m 0,0 km/h (0 Bft) 100,00 %
10.10.2021 21:54 9,8 C 8,3 C 7,3 C 89 % 1026,8 hPa 0,0 l/m 0 min 0 min 0 W/m 0,0 km/h (0 Bft) 100,00 %
10.10.2021 21:56 9,8 C 8,3 C 7,3 C 90 % 1026,7 hPa 0,0 l/m 0 min 0 min 0 W/m 0,0 km/h (0 Bft) 93,62 %
10.10.2021 21:58 9,8 C 8,3 C 7,3 C 90 % 1026,7 hPa 0,0 l/m 0 min 0 min 0 W/m 0,0 km/h (0 Bft) 97,83 %
10.10.2021 22:00 9,7 C 8,3 C 7,3 C 90 % 1026,7 hPa 0,0 l/m 0 min 0 min 0 W/m 0,0 km/h (0 Bft) 95,74 %
10.10.2021 22:02 9,6 C 8,3 C 7,3 C 90 % 1026,8 hPa 0,0 l/m 0 min 0 min 0 W/m 0,0 km/h (0 Bft) 97,87 %
10.10.2021 22:04 9,6 C 8,3 C 7,3 C 90 % 1026,8 hPa 0,0 l/m 0 min 0 min 0 W/m 0,0 km/h (0 Bft) 97,87 %
10.10.2021 22:06 9,6 C 8,3 C 7,3 C 90 % 1026,8 hPa 0,0 l/m 0 min 0 min 0 W/m 0,0 km/h (0 Bft) 97,87 %
10.10.2021 22:08 9,5 C 8,3 C 7,3 C 90 % 1026,8 hPa 0,0 l/m 0 min 0 min 0 W/m 0,0 km/h (0 Bft) 97,87 %
10.10.2021 22:10 9,5 C 8,3 C 7,3 C 90 % 1026,9 hPa 0,0 l/m 0 min 0 min 0 W/m 0,0 km/h (0 Bft) 97,87 %
10.10.2021 22:12 9,5 C 7,8 C 7,3 C 90 % 1026,8 hPa 0,0 l/m 0 min 0 min 0 W/m 0,0 km/h (0 Bft) 95,65 %
10.10.2021 22:14 9,5 C 8,3 C 7,3 C 90 % 1026,8 hPa 0,0 l/m 0 min 0 min 0 W/m 0,0 km/h (0 Bft) 97,87 %
10.10.2021 22:16 9,4 C 8,3 C 7,3 C 90 % 1026,8 hPa 0,0 l/m 0 min 0 min 0 W/m 0,0 km/h (0 Bft) 93,62 %
10.10.2021 22:18 9,4 C 8,3 C 7,3 C 90 % 1026,8 hPa 0,0 l/m 0 min 0 min 0 W/m 0,0 km/h (0 Bft) 97,87 %
10.10.2021 22:20 9,4 C 8,3 C 7,3 C 90 % 1026,8 hPa 0,0 l/m 0 min 0 min 0 W/m 0,0 km/h (0 Bft) 100,00 %
10.10.2021 22:22 9,3 C 8,3 C 7,3 C 90 % 1026,8 hPa 0,0 l/m 0 min 0 min 0 W/m 0,0 km/h (0 Bft) 97,83 %
10.10.2021 22:24 9,3 C 8,3 C 7,3 C 90 % 1026,8 hPa 0,0 l/m 0 min 0 min 0 W/m 0,0 km/h (0 Bft) 97,87 %
10.10.2021 22:26 9,3 C 8,3 C 7,3 C 90 % 1026,9 hPa 0,0 l/m 0 min 0 min 0 W/m 0,0 km/h (0 Bft) 97,87 %
10.10.2021 22:28 9,3 C 7,8 C 7,3 C 90 % 1026,9 hPa 0,0 l/m 0 min 0 min 0 W/m 0,0 km/h (0 Bft) 97,87 %
10.10.2021 22:30 9,3 C 8,3 C 7,3 C 90 % 1026,9 hPa 0,0 l/m 0 min 0 min 0 W/m 0,0 km/h (0 Bft) 100,00 %
10.10.2021 22:32 9,3 C 8,3 C 7,3 C 90 % 1026,9 hPa 0,0 l/m 0 min 0 min 0 W/m 0,0 km/h (0 Bft) 95,74 %
10.10.2021 22:34 9,2 C 8,3 C 7,3 C 90 % 1026,9 hPa 0,0 l/m 0 min 0 min 0 W/m 0,0 km/h (0 Bft) 97,83 %
10.10.2021 22:36 9,2 C 7,8 C 7,3 C 90 % 1027,0 hPa 0,0 l/m 0 min 0 min 0 W/m 0,0 km/h (0 Bft) 97,87 %
10.10.2021 22:38 9,1 C 7,8 C 7,3 C 90 % 1027,0 hPa 0,0 l/m 0 min 0 min 0 W/m 0,0 km/h (0 Bft) 97,87 %
10.10.2021 22:40 9,1 C 8,3 C 7,3 C 90 % 1026,9 hPa 0,0 l/m 0 min 0 min 0 W/m 0,0 km/h (0 Bft) 97,87 %
10.10.2021 22:42 9,1 C 8,3 C 7,3 C 90 % 1026,9 hPa 0,0 l/m 0 min 0 min 0 W/m 0,0 km/h (0 Bft) 97,87 %
10.10.2021 22:44 9,1 C 8,3 C 7,3 C 90 % 1026,9 hPa 0,0 l/m 0 min 0 min 0 W/m 0,0 km/h (0 Bft) 97,87 %
10.10.2021 22:46 9,1 C 8,3 C 7,3 C 91 % 1027,0 hPa 0,0 l/m 0 min 0 min 0 W/m 0,0 km/h (0 Bft) 97,83 %
10.10.2021 22:48 9,1 C 8,3 C 7,3 C 90 % 1027,0 hPa 0,0 l/m 0 min 0 min 0 W/m 0,0 km/h (0 Bft) 97,87 %
10.10.2021 22:50 9,1 C 8,3 C 7,3 C 91 % 1026,9 hPa 0,0 l/m 0 min 0 min 0 W/m 0,0 km/h (0 Bft) 97,87 %
10.10.2021 22:52 9,1 C 8,3 C 7,3 C 91 % 1027,0 hPa 0,0 l/m 0 min 0 min 0 W/m 0,0 km/h (0 Bft) 97,87 %
10.10.2021 22:54 9,1 C 8,3 C 7,3 C 91 % 1027,0 hPa 0,0 l/m 0 min 0 min 0 W/m 0,0 km/h (0 Bft) 97,87 %
10.10.2021 22:56 9,1 C 8,3 C 7,3 C 91 % 1026,9 hPa 0,0 l/m 0 min 0 min 0 W/m 0,0 km/h (0 Bft) 95,74 %
10.10.2021 22:58 9,1 C 7,8 C 7,3 C 91 % 1026,9 hPa 0,0 l/m 0 min 0 min 0 W/m 0,0 km/h (0 Bft) 97,83 %
10.10.2021 23:00 9,1 C 7,8 C 7,3 C 91 % 1026,9 hPa 0,0 l/m 0 min 0 min 0 W/m 0,0 km/h (0 Bft) 100,00 %
10.10.2021 23:02 9,1 C 7,8 C 7,3 C 91 % 1026,9 hPa 0,0 l/m 0 min 0 min 0 W/m 0,0 km/h (0 Bft) 100,00 %
10.10.2021 23:04 9,1 C 7,8 C 7,3 C 91 % 1027,0 hPa 0,0 l/m 0 min 0 min 0 W/m 0,0 km/h (0 Bft) 100,00 %
10.10.2021 23:06 9,0 C 7,8 C 7,3 C 91 % 1027,0 hPa 0,0 l/m 0 min 0 min 0 W/m 0,0 km/h (0 Bft) 100,00 %
10.10.2021 23:08 9,0 C 7,8 C 7,3 C 91 % 1027,0 hPa 0,0 l/m 0 min 0 min 0 W/m 0,0 km/h (0 Bft) 100,00 %
10.10.2021 23:10 9,0 C 7,8 C 7,3 C 91 % 1027,0 hPa 0,0 l/m 0 min 0 min 0 W/m 0,0 km/h (0 Bft) 100,00 %
10.10.2021 23:12 9,0 C 7,8 C 6,7 C 91 % 1027,0 hPa 0,0 l/m 0 min 0 min 0 W/m 0,0 km/h (0 Bft) 100,00 %
10.10.2021 23:14 9,0 C 7,8 C 6,7 C 91 % 1026,9 hPa 0,0 l/m 0 min 0 min 0 W/m 0,0 km/h (0 Bft) 100,00 %
10.10.2021 23:16 9,0 C 7,8 C 7,3 C 91 % 1026,9 hPa 0,0 l/m 0 min 0 min 0 W/m 0,0 km/h (0 Bft) 97,87 %
10.10.2021 23:18 9,0 C 7,8 C 7,3 C 91 % 1026,9 hPa 0,0 l/m 0 min 0 min 0 W/m 0,0 km/h (0 Bft) 97,87 %
10.10.2021 23:20 9,0 C 7,8 C 7,3 C 92 % 1026,9 hPa 0,0 l/m 0 min 0 min 0 W/m 0,0 km/h (0 Bft) 100,00 %
10.10.2021 23:22 9,0 C 7,8 C 7,3 C 92 % 1026,9 hPa 0,0 l/m 0 min 0 min 0 W/m 0,0 km/h (0 Bft) 100,00 %
10.10.2021 23:24 9,0 C 7,8 C 7,3 C 92 % 1026,9 hPa 0,0 l/m 0 min 0 min 0 W/m 0,0 km/h (0 Bft) 100,00 %
10.10.2021 23:26 9,0 C 7,8 C 7,3 C 92 % 1026,9 hPa 0,0 l/m 0 min 0 min 0 W/m 0,0 km/h (0 Bft) 100,00 %
10.10.2021 23:28 9,0 C 7,8 C 7,3 C 92 % 1026,8 hPa 0,0 l/m 0 min 0 min 0 W/m 0,0 km/h (0 Bft) 100,00 %
10.10.2021 23:30 9,0 C 7,8 C 7,3 C 92 % 1026,8 hPa 0,0 l/m 0 min 0 min 0 W/m 0,0 km/h (0 Bft) 100,00 %
10.10.2021 23:32 9,0 C 7,8 C 7,3 C 92 % 1026,8 hPa 0,0 l/m 0 min 0 min 0 W/m 0,0 km/h (0 Bft) 100,00 %
10.10.2021 23:34 8,9 C 7,8 C 7,3 C 92 % 1026,9 hPa 0,0 l/m 0 min 0 min 0 W/m 0,0 km/h (0 Bft) 100,00 %
10.10.2021 23:36 8,9 C 7,8 C 7,3 C 92 % 1026,8 hPa 0,0 l/m 0 min 0 min 0 W/m 0,0 km/h (0 Bft) 97,87 %
10.10.2021 23:38 8,9 C 7,8 C 7,3 C 92 % 1026,9 hPa 0,0 l/m 0 min 0 min 0 W/m 0,0 km/h (0 Bft) 98,28 %
10.10.2021 23:40 8,9 C 7,8 C 6,7 C 92 % 1026,9 hPa 0,0 l/m 0 min 0 min 0 W/m 0,0 km/h (0 Bft) 100,00 %
10.10.2021 23:42 8,9 C 7,8 C 6,7 C 92 % 1026,9 hPa 0,0 l/m 0 min 0 min 0 W/m 0,0 km/h (0 Bft) 100,00 %
10.10.2021 23:44 8,9 C 7,8 C 6,7 C 92 % 1026,9 hPa 0,0 l/m 0 min 0 min 0 W/m 0,0 km/h (0 Bft) 97,87 %
10.10.2021 23:46 8,8 C 7,8 C 6,7 C 92 % 1026,9 hPa 0,0 l/m 0 min 0 min 0 W/m 0,0 km/h (0 Bft) 97,87 %
10.10.2021 23:48 8,8 C 7,8 C 6,7 C 92 % 1026,9 hPa 0,0 l/m 0 min 0 min 0 W/m 0,0 km/h (0 Bft) 100,00 %
10.10.2021 23:50 8,8 C 7,8 C 7,3 C 92 % 1026,9 hPa 0,0 l/m 0 min 0 min 0 W/m 0,0 km/h (0 Bft) 97,83 %
10.10.2021 23:52 8,8 C 7,8 C 7,3 C 92 % 1026,9 hPa 0,0 l/m 0 min 0 min 0 W/m 0,0 km/h (0 Bft) 97,87 %
10.10.2021 23:54 8,8 C 7,8 C 7,3 C 92 % 1026,9 hPa 0,0 l/m 0 min 0 min 0 W/m 0,0 km/h (0 Bft) 97,87 %
10.10.2021 23:56 8,8 C 7,8 C 7,3 C 93 % 1027,0 hPa 0,0 l/m 0 min 0 min 0 W/m 0,0 km/h (0 Bft) 93,62 %
10.10.2021 23:58 8,8 C 7,8 C 7,3 C 93 % 1026,9 hPa 0,0 l/m 0 min 0 min 0 W/m 0,0 km/h (0 Bft) 95,74 %
_ Min-Zeit 07:56 07:36 06:48 14:38 18:28 - - - - 07:18 18:52
Minimum _ 5,9 C 5,0 C 5,0 C 69 % 1026,0 hPa - - - - 0,0 km/h (0 Bft) 55,56 %
_ Max-Zeit 16:22 14:08 11:48 00:00 01:10 00:00 18:08 00:00 14:02 08:40 00:18
Maximum _ 16,8 C 26,1 C 14,5 C 93 % 1028,2 hPa 0,0 l/m 4 min 0 min 568 W/m 16,1 km/h
SO (3 Bft)
100,00 %
Durchschnitt _ 10,6 C 10,4 C 8,7 C 84 % 1027,2 hPa #0,0 l/m #5:02 h #0 min. 212 W/m 4,4 km/h (1 Bft) 97,44 %
© 2021 W. Hausmann